<?xml version="1.0" encoding="UTF-8" standalone="no" ?>
<gpx xmlns="http://www.topografix.com/GPX/1/1" xmlns:xsi="http://www.w3.org/2001/XMLSchema-instance" xsi:schemaLocation="http://www.topografix.com/GPX/1/1 http://www.topografix.com/GPX/1/1/gpx.xsd" version="1.1" creator="VisuGPX - https://www.visugpx.com">
  <metadata>
    <name>7-5 AM La Rochette à Montbrun (pont) par Tomple</name>
  </metadata>
  <trk>
    <name><![CDATA[10809997-7-5 La Rochette à Le Ceret par Tomple]]></name>
    <trkseg>
      <trkpt lat="44.35704" lon="3.56671">
        <ele>539</ele>
        <time>2020-01-04T18:44:54Z</time>
      </trkpt>
      <trkpt lat="44.35783" lon="3.56737">
        <ele>546</ele>
        <time>2020-01-04T18:45:15Z</time>
      </trkpt>
      <trkpt lat="44.35808" lon="3.56772">
        <ele>551</ele>
        <time>2020-01-04T18:45:23Z</time>
      </trkpt>
      <trkpt lat="44.35844" lon="3.56805">
        <ele>559</ele>
        <time>2020-01-04T18:45:33Z</time>
      </trkpt>
      <trkpt lat="44.3587" lon="3.5682">
        <ele>561</ele>
        <time>2020-01-04T18:45:40Z</time>
      </trkpt>
      <trkpt lat="44.35918" lon="3.56838">
        <ele>564</ele>
        <time>2020-01-04T18:45:52Z</time>
      </trkpt>
      <trkpt lat="44.35924" lon="3.56844">
        <ele>565</ele>
        <time>2020-01-04T18:45:53Z</time>
      </trkpt>
      <trkpt lat="44.35925" lon="3.56849">
        <ele>567</ele>
        <time>2020-01-04T18:45:54Z</time>
      </trkpt>
      <trkpt lat="44.35921" lon="3.56853">
        <ele>569</ele>
        <time>2020-01-04T18:45:55Z</time>
      </trkpt>
      <trkpt lat="44.35893" lon="3.56846">
        <ele>568</ele>
        <time>2020-01-04T18:46:02Z</time>
      </trkpt>
      <trkpt lat="44.35804" lon="3.5685">
        <ele>569</ele>
        <time>2020-01-04T18:46:23Z</time>
      </trkpt>
      <trkpt lat="44.35773" lon="3.56853">
        <ele>566</ele>
        <time>2020-01-04T18:46:30Z</time>
      </trkpt>
      <trkpt lat="44.35771" lon="3.56856">
        <ele>566</ele>
        <time>2020-01-04T18:46:31Z</time>
      </trkpt>
      <trkpt lat="44.3577" lon="3.56865">
        <ele>567</ele>
        <time>2020-01-04T18:46:32Z</time>
      </trkpt>
      <trkpt lat="44.35772" lon="3.56872">
        <ele>568</ele>
        <time>2020-01-04T18:46:33Z</time>
      </trkpt>
      <trkpt lat="44.35782" lon="3.56888">
        <ele>572</ele>
        <time>2020-01-04T18:46:37Z</time>
      </trkpt>
      <trkpt lat="44.35765" lon="3.56922">
        <ele>572</ele>
        <time>2020-01-04T18:46:44Z</time>
      </trkpt>
      <trkpt lat="44.35754" lon="3.56973">
        <ele>571</ele>
        <time>2020-01-04T18:46:53Z</time>
      </trkpt>
      <trkpt lat="44.35751" lon="3.56994">
        <ele>570</ele>
        <time>2020-01-04T18:46:56Z</time>
      </trkpt>
      <trkpt lat="44.3575" lon="3.57066">
        <ele>573</ele>
        <time>2020-01-04T18:47:08Z</time>
      </trkpt>
      <trkpt lat="44.35746" lon="3.57122">
        <ele>576</ele>
        <time>2020-01-04T18:47:18Z</time>
      </trkpt>
      <trkpt lat="44.35741" lon="3.57147">
        <ele>576</ele>
        <time>2020-01-04T18:47:22Z</time>
      </trkpt>
      <trkpt lat="44.35715" lon="3.57234">
        <ele>573</ele>
        <time>2020-01-04T18:47:38Z</time>
      </trkpt>
      <trkpt lat="44.35672" lon="3.57475">
        <ele>569</ele>
        <time>2020-01-04T18:48:19Z</time>
      </trkpt>
      <trkpt lat="44.35638" lon="3.57596">
        <ele>565</ele>
        <time>2020-01-04T18:48:41Z</time>
      </trkpt>
      <trkpt lat="44.35615" lon="3.5764">
        <ele>567</ele>
        <time>2020-01-04T18:48:50Z</time>
      </trkpt>
      <trkpt lat="44.35585" lon="3.5767">
        <ele>567</ele>
        <time>2020-01-04T18:48:59Z</time>
      </trkpt>
      <trkpt lat="44.35565" lon="3.57682">
        <ele>566</ele>
        <time>2020-01-04T18:49:04Z</time>
      </trkpt>
      <trkpt lat="44.35544" lon="3.5769">
        <ele>563</ele>
        <time>2020-01-04T18:49:09Z</time>
      </trkpt>
      <trkpt lat="44.35484" lon="3.57709">
        <ele>557</ele>
        <time>2020-01-04T18:49:23Z</time>
      </trkpt>
      <trkpt lat="44.35454" lon="3.57715">
        <ele>557</ele>
        <time>2020-01-04T18:49:30Z</time>
      </trkpt>
      <trkpt lat="44.35422" lon="3.57719">
        <ele>558</ele>
        <time>2020-01-04T18:49:38Z</time>
      </trkpt>
      <trkpt lat="44.35318" lon="3.57719">
        <ele>554</ele>
        <time>2020-01-04T18:50:02Z</time>
      </trkpt>
      <trkpt lat="44.35292" lon="3.57721">
        <ele>553</ele>
        <time>2020-01-04T18:50:08Z</time>
      </trkpt>
      <trkpt lat="44.35157" lon="3.57746">
        <ele>550</ele>
        <time>2020-01-04T18:50:40Z</time>
      </trkpt>
      <trkpt lat="44.35137" lon="3.57746">
        <ele>552</ele>
        <time>2020-01-04T18:50:45Z</time>
      </trkpt>
      <trkpt lat="44.35111" lon="3.57741">
        <ele>554</ele>
        <time>2020-01-04T18:50:51Z</time>
      </trkpt>
      <trkpt lat="44.35016" lon="3.57713">
        <ele>556</ele>
        <time>2020-01-04T18:51:14Z</time>
      </trkpt>
      <trkpt lat="44.34927" lon="3.57703">
        <ele>555</ele>
        <time>2020-01-04T18:51:34Z</time>
      </trkpt>
      <trkpt lat="44.34775" lon="3.57695">
        <ele>560</ele>
        <time>2020-01-04T18:52:10Z</time>
      </trkpt>
      <trkpt lat="44.34729" lon="3.57689">
        <ele>557</ele>
        <time>2020-01-04T18:52:21Z</time>
      </trkpt>
      <trkpt lat="44.34695" lon="3.57694">
        <ele>555</ele>
        <time>2020-01-04T18:52:29Z</time>
      </trkpt>
      <trkpt lat="44.34679" lon="3.57702">
        <ele>555</ele>
        <time>2020-01-04T18:52:33Z</time>
      </trkpt>
      <trkpt lat="44.34672" lon="3.57709">
        <ele>556</ele>
        <time>2020-01-04T18:52:35Z</time>
      </trkpt>
      <trkpt lat="44.34668" lon="3.577">
        <ele>554</ele>
        <time>2020-01-04T18:52:36Z</time>
      </trkpt>
      <trkpt lat="44.34669" lon="3.57689">
        <ele>552</ele>
        <time>2020-01-04T18:52:38Z</time>
      </trkpt>
      <trkpt lat="44.3468" lon="3.57681">
        <ele>552</ele>
        <time>2020-01-04T18:52:41Z</time>
      </trkpt>
      <trkpt lat="44.34716" lon="3.57675">
        <ele>553</ele>
        <time>2020-01-04T18:52:50Z</time>
      </trkpt>
      <trkpt lat="44.34821" lon="3.57671">
        <ele>553</ele>
        <time>2020-01-04T18:53:14Z</time>
      </trkpt>
      <trkpt lat="44.34871" lon="3.5766">
        <ele>548</ele>
        <time>2020-01-04T18:53:26Z</time>
      </trkpt>
      <trkpt lat="44.34885" lon="3.57653">
        <ele>547</ele>
        <time>2020-01-04T18:53:30Z</time>
      </trkpt>
      <trkpt lat="44.34894" lon="3.57646">
        <ele>545</ele>
        <time>2020-01-04T18:53:32Z</time>
      </trkpt>
      <trkpt lat="44.34898" lon="3.57639">
        <ele>544</ele>
        <time>2020-01-04T18:53:33Z</time>
      </trkpt>
      <trkpt lat="44.34915" lon="3.57665">
        <ele>546</ele>
        <time>2020-01-04T18:53:39Z</time>
      </trkpt>
      <trkpt lat="44.34935" lon="3.57677">
        <ele>548</ele>
        <time>2020-01-04T18:53:44Z</time>
      </trkpt>
      <trkpt lat="44.35001" lon="3.57693">
        <ele>552</ele>
        <time>2020-01-04T18:54:00Z</time>
      </trkpt>
      <trkpt lat="44.35028" lon="3.57692">
        <ele>549</ele>
        <time>2020-01-04T18:54:06Z</time>
      </trkpt>
      <trkpt lat="44.35037" lon="3.57694">
        <ele>549</ele>
        <time>2020-01-04T18:54:08Z</time>
      </trkpt>
      <trkpt lat="44.35066" lon="3.57709">
        <ele>551</ele>
        <time>2020-01-04T18:54:16Z</time>
      </trkpt>
      <trkpt lat="44.35103" lon="3.57721">
        <ele>551</ele>
        <time>2020-01-04T18:54:25Z</time>
      </trkpt>
      <trkpt lat="44.35117" lon="3.57721">
        <ele>549</ele>
        <time>2020-01-04T18:54:28Z</time>
      </trkpt>
      <trkpt lat="44.3518" lon="3.57704">
        <ele>543</ele>
        <time>2020-01-04T18:54:43Z</time>
      </trkpt>
      <trkpt lat="44.3521" lon="3.57703">
        <ele>544</ele>
        <time>2020-01-04T18:54:50Z</time>
      </trkpt>
      <trkpt lat="44.35214" lon="3.57701">
        <ele>544</ele>
        <time>2020-01-04T18:54:51Z</time>
      </trkpt>
      <trkpt lat="44.3522" lon="3.57696">
        <ele>543</ele>
        <time>2020-01-04T18:54:52Z</time>
      </trkpt>
      <trkpt lat="44.35248" lon="3.57649">
        <ele>535</ele>
        <time>2020-01-04T18:55:03Z</time>
      </trkpt>
      <trkpt lat="44.35261" lon="3.57632">
        <ele>533</ele>
        <time>2020-01-04T18:55:07Z</time>
      </trkpt>
      <trkpt lat="44.35335" lon="3.57569">
        <ele>533</ele>
        <time>2020-01-04T18:55:27Z</time>
      </trkpt>
      <trkpt lat="44.35353" lon="3.57562">
        <ele>535</ele>
        <time>2020-01-04T18:55:31Z</time>
      </trkpt>
      <trkpt lat="44.35411" lon="3.5756">
        <ele>541</ele>
        <time>2020-01-04T18:55:45Z</time>
      </trkpt>
      <trkpt lat="44.35424" lon="3.57557">
        <ele>541</ele>
        <time>2020-01-04T18:55:48Z</time>
      </trkpt>
      <trkpt lat="44.35436" lon="3.5755">
        <ele>542</ele>
        <time>2020-01-04T18:55:51Z</time>
      </trkpt>
      <trkpt lat="44.35461" lon="3.57522">
        <ele>545</ele>
        <time>2020-01-04T18:55:59Z</time>
      </trkpt>
      <trkpt lat="44.3547" lon="3.57505">
        <ele>546</ele>
        <time>2020-01-04T18:56:02Z</time>
      </trkpt>
      <trkpt lat="44.3548" lon="3.57462">
        <ele>549</ele>
        <time>2020-01-04T18:56:10Z</time>
      </trkpt>
      <trkpt lat="44.35481" lon="3.57448">
        <ele>550</ele>
        <time>2020-01-04T18:56:12Z</time>
      </trkpt>
      <trkpt lat="44.35477" lon="3.57402">
        <ele>554</ele>
        <time>2020-01-04T18:56:20Z</time>
      </trkpt>
      <trkpt lat="44.35462" lon="3.57298">
        <ele>554</ele>
        <time>2020-01-04T18:56:37Z</time>
      </trkpt>
      <trkpt lat="44.35458" lon="3.57291">
        <ele>555</ele>
        <time>2020-01-04T18:56:39Z</time>
      </trkpt>
      <trkpt lat="44.3545" lon="3.57286">
        <ele>556</ele>
        <time>2020-01-04T18:56:41Z</time>
      </trkpt>
      <trkpt lat="44.35439" lon="3.57274">
        <ele>557</ele>
        <time>2020-01-04T18:56:44Z</time>
      </trkpt>
      <trkpt lat="44.3543" lon="3.57273">
        <ele>558</ele>
        <time>2020-01-04T18:56:46Z</time>
      </trkpt>
      <trkpt lat="44.35426" lon="3.57275">
        <ele>559</ele>
        <time>2020-01-04T18:56:47Z</time>
      </trkpt>
      <trkpt lat="44.35422" lon="3.57291">
        <ele>561</ele>
        <time>2020-01-04T18:56:50Z</time>
      </trkpt>
      <trkpt lat="44.35413" lon="3.57303">
        <ele>562</ele>
        <time>2020-01-04T18:56:53Z</time>
      </trkpt>
      <trkpt lat="44.35376" lon="3.57331">
        <ele>565</ele>
        <time>2020-01-04T18:57:03Z</time>
      </trkpt>
      <trkpt lat="44.35367" lon="3.57334">
        <ele>565</ele>
        <time>2020-01-04T18:57:05Z</time>
      </trkpt>
      <trkpt lat="44.35361" lon="3.57333">
        <ele>565</ele>
        <time>2020-01-04T18:57:06Z</time>
      </trkpt>
      <trkpt lat="44.35356" lon="3.57329">
        <ele>566</ele>
        <time>2020-01-04T18:57:08Z</time>
      </trkpt>
      <trkpt lat="44.35329" lon="3.57299">
        <ele>569</ele>
        <time>2020-01-04T18:57:16Z</time>
      </trkpt>
      <trkpt lat="44.35306" lon="3.573">
        <ele>570</ele>
        <time>2020-01-04T18:57:21Z</time>
      </trkpt>
      <trkpt lat="44.35298" lon="3.57297">
        <ele>571</ele>
        <time>2020-01-04T18:57:23Z</time>
      </trkpt>
      <trkpt lat="44.3529" lon="3.57302">
        <ele>571</ele>
        <time>2020-01-04T18:57:25Z</time>
      </trkpt>
      <trkpt lat="44.35262" lon="3.573">
        <ele>574</ele>
        <time>2020-01-04T18:57:32Z</time>
      </trkpt>
      <trkpt lat="44.35245" lon="3.57304">
        <ele>574</ele>
        <time>2020-01-04T18:57:36Z</time>
      </trkpt>
      <trkpt lat="44.35233" lon="3.57308">
        <ele>574</ele>
        <time>2020-01-04T18:57:39Z</time>
      </trkpt>
      <trkpt lat="44.35217" lon="3.57319">
        <ele>573</ele>
        <time>2020-01-04T18:57:43Z</time>
      </trkpt>
      <trkpt lat="44.35187" lon="3.57332">
        <ele>570</ele>
        <time>2020-01-04T18:57:50Z</time>
      </trkpt>
      <trkpt lat="44.35169" lon="3.57334">
        <ele>571</ele>
        <time>2020-01-04T18:57:54Z</time>
      </trkpt>
      <trkpt lat="44.35125" lon="3.57317">
        <ele>573</ele>
        <time>2020-01-04T18:58:05Z</time>
      </trkpt>
      <trkpt lat="44.35107" lon="3.57312">
        <ele>574</ele>
        <time>2020-01-04T18:58:09Z</time>
      </trkpt>
      <trkpt lat="44.35076" lon="3.57308">
        <ele>571</ele>
        <time>2020-01-04T18:58:17Z</time>
      </trkpt>
      <trkpt lat="44.35062" lon="3.57302">
        <ele>571</ele>
        <time>2020-01-04T18:58:20Z</time>
      </trkpt>
      <trkpt lat="44.35046" lon="3.57293">
        <ele>572</ele>
        <time>2020-01-04T18:58:24Z</time>
      </trkpt>
      <trkpt lat="44.35029" lon="3.57278">
        <ele>576</ele>
        <time>2020-01-04T18:58:29Z</time>
      </trkpt>
      <trkpt lat="44.34989" lon="3.57251">
        <ele>581</ele>
        <time>2020-01-04T18:58:39Z</time>
      </trkpt>
      <trkpt lat="44.34939" lon="3.57211">
        <ele>589</ele>
        <time>2020-01-04T18:58:53Z</time>
      </trkpt>
      <trkpt lat="44.34924" lon="3.57205">
        <ele>588</ele>
        <time>2020-01-04T18:58:56Z</time>
      </trkpt>
      <trkpt lat="44.34867" lon="3.57197">
        <ele>578</ele>
        <time>2020-01-04T18:59:10Z</time>
      </trkpt>
      <trkpt lat="44.34816" lon="3.57182">
        <ele>574</ele>
        <time>2020-01-04T18:59:22Z</time>
      </trkpt>
      <trkpt lat="44.34785" lon="3.57168">
        <ele>576</ele>
        <time>2020-01-04T18:59:29Z</time>
      </trkpt>
      <trkpt lat="44.34774" lon="3.57166">
        <ele>575</ele>
        <time>2020-01-04T18:59:32Z</time>
      </trkpt>
      <trkpt lat="44.3476" lon="3.57168">
        <ele>572</ele>
        <time>2020-01-04T18:59:35Z</time>
      </trkpt>
      <trkpt lat="44.34748" lon="3.57174">
        <ele>568</ele>
        <time>2020-01-04T18:59:38Z</time>
      </trkpt>
      <trkpt lat="44.34738" lon="3.57176">
        <ele>567</ele>
        <time>2020-01-04T18:59:41Z</time>
      </trkpt>
      <trkpt lat="44.34721" lon="3.57173">
        <ele>568</ele>
        <time>2020-01-04T18:59:45Z</time>
      </trkpt>
      <trkpt lat="44.34694" lon="3.57162">
        <ele>572</ele>
        <time>2020-01-04T18:59:51Z</time>
      </trkpt>
      <trkpt lat="44.34674" lon="3.5716">
        <ele>573</ele>
        <time>2020-01-04T18:59:56Z</time>
      </trkpt>
      <trkpt lat="44.34627" lon="3.57176">
        <ele>569</ele>
        <time>2020-01-04T19:00:07Z</time>
      </trkpt>
      <trkpt lat="44.34604" lon="3.57177">
        <ele>570</ele>
        <time>2020-01-04T19:00:13Z</time>
      </trkpt>
      <trkpt lat="44.34593" lon="3.57172">
        <ele>573</ele>
        <time>2020-01-04T19:00:15Z</time>
      </trkpt>
      <trkpt lat="44.34561" lon="3.57137">
        <ele>596</ele>
        <time>2020-01-04T19:00:25Z</time>
      </trkpt>
      <trkpt lat="44.34551" lon="3.57137">
        <ele>599</ele>
        <time>2020-01-04T19:00:27Z</time>
      </trkpt>
      <trkpt lat="44.34547" lon="3.57149">
        <ele>595</ele>
        <time>2020-01-04T19:00:29Z</time>
      </trkpt>
      <trkpt lat="44.3454" lon="3.57209">
        <ele>574</ele>
        <time>2020-01-04T19:00:39Z</time>
      </trkpt>
      <trkpt lat="44.34534" lon="3.57212">
        <ele>574</ele>
        <time>2020-01-04T19:00:41Z</time>
      </trkpt>
      <trkpt lat="44.34485" lon="3.57221">
        <ele>586</ele>
        <time>2020-01-04T19:00:52Z</time>
      </trkpt>
      <trkpt lat="44.34471" lon="3.57236">
        <ele>584</ele>
        <time>2020-01-04T19:00:57Z</time>
      </trkpt>
      <trkpt lat="44.34465" lon="3.5726">
        <ele>576</ele>
        <time>2020-01-04T19:01:01Z</time>
      </trkpt>
      <trkpt lat="44.34456" lon="3.57278">
        <ele>572</ele>
        <time>2020-01-04T19:01:04Z</time>
      </trkpt>
      <trkpt lat="44.34446" lon="3.57285">
        <ele>572</ele>
        <time>2020-01-04T19:01:07Z</time>
      </trkpt>
      <trkpt lat="44.34423" lon="3.57282">
        <ele>580</ele>
        <time>2020-01-04T19:01:12Z</time>
      </trkpt>
      <trkpt lat="44.34411" lon="3.57287">
        <ele>582</ele>
        <time>2020-01-04T19:01:15Z</time>
      </trkpt>
      <trkpt lat="44.34407" lon="3.57302">
        <ele>578</ele>
        <time>2020-01-04T19:01:18Z</time>
      </trkpt>
      <trkpt lat="44.34397" lon="3.5732">
        <ele>576</ele>
        <time>2020-01-04T19:01:22Z</time>
      </trkpt>
      <trkpt lat="44.34395" lon="3.5734">
        <ele>571</ele>
        <time>2020-01-04T19:01:25Z</time>
      </trkpt>
      <trkpt lat="44.34388" lon="3.57354">
        <ele>570</ele>
        <time>2020-01-04T19:01:28Z</time>
      </trkpt>
      <trkpt lat="44.34364" lon="3.57366">
        <ele>577</ele>
        <time>2020-01-04T19:01:34Z</time>
      </trkpt>
      <trkpt lat="44.34337" lon="3.57367">
        <ele>587</ele>
        <time>2020-01-04T19:01:40Z</time>
      </trkpt>
      <trkpt lat="44.34326" lon="3.57376">
        <ele>589</ele>
        <time>2020-01-04T19:01:43Z</time>
      </trkpt>
      <trkpt lat="44.34314" lon="3.57393">
        <ele>590</ele>
        <time>2020-01-04T19:01:47Z</time>
      </trkpt>
      <trkpt lat="44.34306" lon="3.5743">
        <ele>584</ele>
        <time>2020-01-04T19:01:54Z</time>
      </trkpt>
      <trkpt lat="44.34294" lon="3.57463">
        <ele>583</ele>
        <time>2020-01-04T19:02:00Z</time>
      </trkpt>
      <trkpt lat="44.34292" lon="3.57475">
        <ele>582</ele>
        <time>2020-01-04T19:02:02Z</time>
      </trkpt>
      <trkpt lat="44.34294" lon="3.57536">
        <ele>572</ele>
        <time>2020-01-04T19:02:12Z</time>
      </trkpt>
      <trkpt lat="44.34289" lon="3.5758">
        <ele>570</ele>
        <time>2020-01-04T19:02:20Z</time>
      </trkpt>
      <trkpt lat="44.3425" lon="3.57681">
        <ele>566</ele>
        <time>2020-01-04T19:02:39Z</time>
      </trkpt>
      <trkpt lat="44.34234" lon="3.57754">
        <ele>561</ele>
        <time>2020-01-04T19:02:52Z</time>
      </trkpt>
      <trkpt lat="44.34233" lon="3.57771">
        <ele>560</ele>
        <time>2020-01-04T19:02:54Z</time>
      </trkpt>
      <trkpt lat="44.34237" lon="3.57793">
        <ele>559</ele>
        <time>2020-01-04T19:02:58Z</time>
      </trkpt>
      <trkpt lat="44.34233" lon="3.57808">
        <ele>559</ele>
        <time>2020-01-04T19:03:01Z</time>
      </trkpt>
      <trkpt lat="44.34218" lon="3.57844">
        <ele>558</ele>
        <time>2020-01-04T19:03:08Z</time>
      </trkpt>
      <trkpt lat="44.34201" lon="3.57868">
        <ele>557</ele>
        <time>2020-01-04T19:03:13Z</time>
      </trkpt>
      <trkpt lat="44.34168" lon="3.57897">
        <ele>557</ele>
        <time>2020-01-04T19:03:23Z</time>
      </trkpt>
      <trkpt lat="44.34154" lon="3.57926">
        <ele>555</ele>
        <time>2020-01-04T19:03:28Z</time>
      </trkpt>
      <trkpt lat="44.34134" lon="3.57953">
        <ele>554</ele>
        <time>2020-01-04T19:03:35Z</time>
      </trkpt>
      <trkpt lat="44.34128" lon="3.57958">
        <ele>555</ele>
        <time>2020-01-04T19:03:37Z</time>
      </trkpt>
      <trkpt lat="44.34102" lon="3.57967">
        <ele>556</ele>
        <time>2020-01-04T19:03:43Z</time>
      </trkpt>
      <trkpt lat="44.34086" lon="3.5798">
        <ele>556</ele>
        <time>2020-01-04T19:03:47Z</time>
      </trkpt>
      <trkpt lat="44.34071" lon="3.57997">
        <ele>556</ele>
        <time>2020-01-04T19:03:52Z</time>
      </trkpt>
      <trkpt lat="44.34075" lon="3.5798">
        <ele>557</ele>
        <time>2020-01-04T19:03:55Z</time>
      </trkpt>
      <trkpt lat="44.34075" lon="3.57947">
        <ele>560</ele>
        <time>2020-01-04T19:04:00Z</time>
      </trkpt>
      <trkpt lat="44.34078" lon="3.57924">
        <ele>562</ele>
        <time>2020-01-04T19:04:04Z</time>
      </trkpt>
      <trkpt lat="44.34081" lon="3.57913">
        <ele>563</ele>
        <time>2020-01-04T19:04:06Z</time>
      </trkpt>
      <trkpt lat="44.34114" lon="3.57854">
        <ele>565</ele>
        <time>2020-01-04T19:04:19Z</time>
      </trkpt>
      <trkpt lat="44.34124" lon="3.57821">
        <ele>567</ele>
        <time>2020-01-04T19:04:25Z</time>
      </trkpt>
      <trkpt lat="44.34123" lon="3.57794">
        <ele>571</ele>
        <time>2020-01-04T19:04:29Z</time>
      </trkpt>
      <trkpt lat="44.34117" lon="3.57783">
        <ele>572</ele>
        <time>2020-01-04T19:04:31Z</time>
      </trkpt>
      <trkpt lat="44.34105" lon="3.57775">
        <ele>575</ele>
        <time>2020-01-04T19:04:34Z</time>
      </trkpt>
      <trkpt lat="44.34092" lon="3.5778">
        <ele>575</ele>
        <time>2020-01-04T19:04:38Z</time>
      </trkpt>
      <trkpt lat="44.34073" lon="3.57799">
        <ele>574</ele>
        <time>2020-01-04T19:04:43Z</time>
      </trkpt>
      <trkpt lat="44.34058" lon="3.57804">
        <ele>575</ele>
        <time>2020-01-04T19:04:47Z</time>
      </trkpt>
      <trkpt lat="44.33989" lon="3.57805">
        <ele>583</ele>
        <time>2020-01-04T19:05:03Z</time>
      </trkpt>
      <trkpt lat="44.33972" lon="3.57794">
        <ele>588</ele>
        <time>2020-01-04T19:05:07Z</time>
      </trkpt>
      <trkpt lat="44.33964" lon="3.57778">
        <ele>592</ele>
        <time>2020-01-04T19:05:10Z</time>
      </trkpt>
      <trkpt lat="44.33925" lon="3.5761">
        <ele>607</ele>
        <time>2020-01-04T19:05:40Z</time>
      </trkpt>
      <trkpt lat="44.33918" lon="3.57547">
        <ele>609</ele>
        <time>2020-01-04T19:05:51Z</time>
      </trkpt>
      <trkpt lat="44.33922" lon="3.57537">
        <ele>610</ele>
        <time>2020-01-04T19:05:52Z</time>
      </trkpt>
      <trkpt lat="44.33939" lon="3.57521">
        <ele>614</ele>
        <time>2020-01-04T19:05:57Z</time>
      </trkpt>
      <trkpt lat="44.33948" lon="3.57515">
        <ele>617</ele>
        <time>2020-01-04T19:06:00Z</time>
      </trkpt>
      <trkpt lat="44.33959" lon="3.57513">
        <ele>620</ele>
        <time>2020-01-04T19:06:02Z</time>
      </trkpt>
      <trkpt lat="44.33967" lon="3.57522">
        <ele>620</ele>
        <time>2020-01-04T19:06:05Z</time>
      </trkpt>
      <trkpt lat="44.34022" lon="3.57626">
        <ele>607</ele>
        <time>2020-01-04T19:06:26Z</time>
      </trkpt>
      <trkpt lat="44.3404" lon="3.57647">
        <ele>604</ele>
        <time>2020-01-04T19:06:32Z</time>
      </trkpt>
      <trkpt lat="44.34048" lon="3.57653">
        <ele>603</ele>
        <time>2020-01-04T19:06:34Z</time>
      </trkpt>
      <trkpt lat="44.34065" lon="3.57647">
        <ele>606</ele>
        <time>2020-01-04T19:06:38Z</time>
      </trkpt>
      <trkpt lat="44.34079" lon="3.57637">
        <ele>610</ele>
        <time>2020-01-04T19:06:42Z</time>
      </trkpt>
      <trkpt lat="44.34102" lon="3.57619">
        <ele>612</ele>
        <time>2020-01-04T19:06:48Z</time>
      </trkpt>
      <trkpt lat="44.34116" lon="3.57604">
        <ele>614</ele>
        <time>2020-01-04T19:06:52Z</time>
      </trkpt>
      <trkpt lat="44.34141" lon="3.57567">
        <ele>619</ele>
        <time>2020-01-04T19:07:00Z</time>
      </trkpt>
      <trkpt lat="44.34154" lon="3.57543">
        <ele>622</ele>
        <time>2020-01-04T19:07:05Z</time>
      </trkpt>
      <trkpt lat="44.34181" lon="3.57489">
        <ele>627</ele>
        <time>2020-01-04T19:07:16Z</time>
      </trkpt>
      <trkpt lat="44.34206" lon="3.57428">
        <ele>630</ele>
        <time>2020-01-04T19:07:28Z</time>
      </trkpt>
      <trkpt lat="44.3423" lon="3.57379">
        <ele>629</ele>
        <time>2020-01-04T19:07:38Z</time>
      </trkpt>
      <trkpt lat="44.34236" lon="3.57325">
        <ele>636</ele>
        <time>2020-01-04T19:07:47Z</time>
      </trkpt>
      <trkpt lat="44.34245" lon="3.57277">
        <ele>640</ele>
        <time>2020-01-04T19:07:55Z</time>
      </trkpt>
      <trkpt lat="44.34262" lon="3.57238">
        <ele>643</ele>
        <time>2020-01-04T19:08:03Z</time>
      </trkpt>
      <trkpt lat="44.34284" lon="3.57219">
        <ele>643</ele>
        <time>2020-01-04T19:08:09Z</time>
      </trkpt>
      <trkpt lat="44.34307" lon="3.57212">
        <ele>639</ele>
        <time>2020-01-04T19:08:15Z</time>
      </trkpt>
      <trkpt lat="44.34334" lon="3.57176">
        <ele>642</ele>
        <time>2020-01-04T19:08:23Z</time>
      </trkpt>
      <trkpt lat="44.3434" lon="3.57162">
        <ele>643</ele>
        <time>2020-01-04T19:08:26Z</time>
      </trkpt>
      <trkpt lat="44.34341" lon="3.57137">
        <ele>648</ele>
        <time>2020-01-04T19:08:30Z</time>
      </trkpt>
      <trkpt lat="44.34345" lon="3.57119">
        <ele>652</ele>
        <time>2020-01-04T19:08:33Z</time>
      </trkpt>
      <trkpt lat="44.34365" lon="3.57084">
        <ele>655</ele>
        <time>2020-01-04T19:08:41Z</time>
      </trkpt>
      <trkpt lat="44.34382" lon="3.57064">
        <ele>659</ele>
        <time>2020-01-04T19:08:46Z</time>
      </trkpt>
      <trkpt lat="44.34404" lon="3.57047">
        <ele>661</ele>
        <time>2020-01-04T19:08:52Z</time>
      </trkpt>
      <trkpt lat="44.34432" lon="3.57046">
        <ele>657</ele>
        <time>2020-01-04T19:08:58Z</time>
      </trkpt>
      <trkpt lat="44.34439" lon="3.57041">
        <ele>657</ele>
        <time>2020-01-04T19:09:00Z</time>
      </trkpt>
      <trkpt lat="44.34434" lon="3.5703">
        <ele>662</ele>
        <time>2020-01-04T19:09:02Z</time>
      </trkpt>
      <trkpt lat="44.34412" lon="3.57028">
        <ele>668</ele>
        <time>2020-01-04T19:09:08Z</time>
      </trkpt>
      <trkpt lat="44.34384" lon="3.57038">
        <ele>668</ele>
        <time>2020-01-04T19:09:14Z</time>
      </trkpt>
      <trkpt lat="44.34339" lon="3.57056">
        <ele>669</ele>
        <time>2020-01-04T19:09:25Z</time>
      </trkpt>
      <trkpt lat="44.34328" lon="3.57068">
        <ele>668</ele>
        <time>2020-01-04T19:09:29Z</time>
      </trkpt>
      <trkpt lat="44.34296" lon="3.57085">
        <ele>671</ele>
        <time>2020-01-04T19:09:37Z</time>
      </trkpt>
      <trkpt lat="44.3428" lon="3.57103">
        <ele>671</ele>
        <time>2020-01-04T19:09:41Z</time>
      </trkpt>
      <trkpt lat="44.34232" lon="3.5712">
        <ele>679</ele>
        <time>2020-01-04T19:09:53Z</time>
      </trkpt>
      <trkpt lat="44.34197" lon="3.5716">
        <ele>681</ele>
        <time>2020-01-04T19:10:03Z</time>
      </trkpt>
      <trkpt lat="44.3417" lon="3.57207">
        <ele>682</ele>
        <time>2020-01-04T19:10:14Z</time>
      </trkpt>
      <trkpt lat="44.34149" lon="3.57234">
        <ele>682</ele>
        <time>2020-01-04T19:10:20Z</time>
      </trkpt>
      <trkpt lat="44.34151" lon="3.57218">
        <ele>684</ele>
        <time>2020-01-04T19:10:23Z</time>
      </trkpt>
      <trkpt lat="44.34166" lon="3.57185">
        <ele>687</ele>
        <time>2020-01-04T19:10:29Z</time>
      </trkpt>
      <trkpt lat="44.34172" lon="3.57111">
        <ele>695</ele>
        <time>2020-01-04T19:10:42Z</time>
      </trkpt>
      <trkpt lat="44.34166" lon="3.57093">
        <ele>699</ele>
        <time>2020-01-04T19:10:45Z</time>
      </trkpt>
      <trkpt lat="44.34153" lon="3.57085">
        <ele>699</ele>
        <time>2020-01-04T19:10:48Z</time>
      </trkpt>
      <trkpt lat="44.34188" lon="3.5705">
        <ele>699</ele>
        <time>2020-01-04T19:10:59Z</time>
      </trkpt>
      <trkpt lat="44.34202" lon="3.57041">
        <ele>698</ele>
        <time>2020-01-04T19:11:02Z</time>
      </trkpt>
      <trkpt lat="44.34219" lon="3.57036">
        <ele>696</ele>
        <time>2020-01-04T19:11:06Z</time>
      </trkpt>
      <trkpt lat="44.34253" lon="3.57005">
        <ele>698</ele>
        <time>2020-01-04T19:11:16Z</time>
      </trkpt>
      <trkpt lat="44.34258" lon="3.56998">
        <ele>699</ele>
        <time>2020-01-04T19:11:17Z</time>
      </trkpt>
      <trkpt lat="44.3426" lon="3.56989">
        <ele>701</ele>
        <time>2020-01-04T19:11:19Z</time>
      </trkpt>
      <trkpt lat="44.34256" lon="3.56954">
        <ele>709</ele>
        <time>2020-01-04T19:11:25Z</time>
      </trkpt>
      <trkpt lat="44.34291" lon="3.5696">
        <ele>704</ele>
        <time>2020-01-04T19:11:33Z</time>
      </trkpt>
      <trkpt lat="44.34313" lon="3.56941">
        <ele>707</ele>
        <time>2020-01-04T19:11:39Z</time>
      </trkpt>
      <trkpt lat="44.34348" lon="3.56924">
        <ele>709</ele>
        <time>2020-01-04T19:11:48Z</time>
      </trkpt>
      <trkpt lat="44.34378" lon="3.56864">
        <ele>716</ele>
        <time>2020-01-04T19:12:00Z</time>
      </trkpt>
      <trkpt lat="44.34386" lon="3.56829">
        <ele>720</ele>
        <time>2020-01-04T19:12:06Z</time>
      </trkpt>
      <trkpt lat="44.34396" lon="3.568">
        <ele>725</ele>
        <time>2020-01-04T19:12:11Z</time>
      </trkpt>
      <trkpt lat="44.34409" lon="3.56784">
        <ele>726</ele>
        <time>2020-01-04T19:12:16Z</time>
      </trkpt>
      <trkpt lat="44.34418" lon="3.56778">
        <ele>725</ele>
        <time>2020-01-04T19:12:18Z</time>
      </trkpt>
      <trkpt lat="44.3443" lon="3.56779">
        <ele>724</ele>
        <time>2020-01-04T19:12:21Z</time>
      </trkpt>
      <trkpt lat="44.34446" lon="3.56757">
        <ele>728</ele>
        <time>2020-01-04T19:12:26Z</time>
      </trkpt>
      <trkpt lat="44.3445" lon="3.56755">
        <ele>728</ele>
        <time>2020-01-04T19:12:27Z</time>
      </trkpt>
      <trkpt lat="44.34459" lon="3.56751">
        <ele>729</ele>
        <time>2020-01-04T19:12:29Z</time>
      </trkpt>
      <trkpt lat="44.34482" lon="3.5675">
        <ele>727</ele>
        <time>2020-01-04T19:12:34Z</time>
      </trkpt>
      <trkpt lat="44.34498" lon="3.56746">
        <ele>727</ele>
        <time>2020-01-04T19:12:38Z</time>
      </trkpt>
      <trkpt lat="44.34526" lon="3.56731">
        <ele>731</ele>
        <time>2020-01-04T19:12:45Z</time>
      </trkpt>
      <trkpt lat="44.3457" lon="3.56689">
        <ele>742</ele>
        <time>2020-01-04T19:12:58Z</time>
      </trkpt>
      <trkpt lat="44.34579" lon="3.56687">
        <ele>743</ele>
        <time>2020-01-04T19:13:00Z</time>
      </trkpt>
      <trkpt lat="44.34607" lon="3.56688">
        <ele>745</ele>
        <time>2020-01-04T19:13:06Z</time>
      </trkpt>
      <trkpt lat="44.34615" lon="3.56679">
        <ele>748</ele>
        <time>2020-01-04T19:13:09Z</time>
      </trkpt>
      <trkpt lat="44.34622" lon="3.56677">
        <ele>750</ele>
        <time>2020-01-04T19:13:10Z</time>
      </trkpt>
      <trkpt lat="44.34647" lon="3.56682">
        <ele>751</ele>
        <time>2020-01-04T19:13:16Z</time>
      </trkpt>
      <trkpt lat="44.34673" lon="3.56694">
        <ele>750</ele>
        <time>2020-01-04T19:13:23Z</time>
      </trkpt>
      <trkpt lat="44.34685" lon="3.56695">
        <ele>751</ele>
        <time>2020-01-04T19:13:26Z</time>
      </trkpt>
      <trkpt lat="44.34691" lon="3.56691">
        <ele>753</ele>
        <time>2020-01-04T19:13:27Z</time>
      </trkpt>
      <trkpt lat="44.34709" lon="3.56654">
        <ele>758</ele>
        <time>2020-01-04T19:13:35Z</time>
      </trkpt>
      <trkpt lat="44.34709" lon="3.56639">
        <ele>758</ele>
        <time>2020-01-04T19:13:37Z</time>
      </trkpt>
      <trkpt lat="44.34706" lon="3.56632">
        <ele>758</ele>
        <time>2020-01-04T19:13:38Z</time>
      </trkpt>
      <trkpt lat="44.34646" lon="3.56572">
        <ele>769</ele>
        <time>2020-01-04T19:13:56Z</time>
      </trkpt>
      <trkpt lat="44.34637" lon="3.56557">
        <ele>772</ele>
        <time>2020-01-04T19:13:59Z</time>
      </trkpt>
      <trkpt lat="44.34634" lon="3.56518">
        <ele>777</ele>
        <time>2020-01-04T19:14:05Z</time>
      </trkpt>
      <trkpt lat="44.34628" lon="3.56491">
        <ele>782</ele>
        <time>2020-01-04T19:14:10Z</time>
      </trkpt>
      <trkpt lat="44.34615" lon="3.56451">
        <ele>791</ele>
        <time>2020-01-04T19:14:18Z</time>
      </trkpt>
      <trkpt lat="44.34603" lon="3.56432">
        <ele>797</ele>
        <time>2020-01-04T19:14:22Z</time>
      </trkpt>
      <trkpt lat="44.34605" lon="3.56421">
        <ele>798</ele>
        <time>2020-01-04T19:14:24Z</time>
      </trkpt>
      <trkpt lat="44.34621" lon="3.564">
        <ele>797</ele>
        <time>2020-01-04T19:14:29Z</time>
      </trkpt>
      <trkpt lat="44.34632" lon="3.5638">
        <ele>797</ele>
        <time>2020-01-04T19:14:33Z</time>
      </trkpt>
      <trkpt lat="44.34651" lon="3.56308">
        <ele>802</ele>
        <time>2020-01-04T19:14:46Z</time>
      </trkpt>
      <trkpt lat="44.34654" lon="3.56274">
        <ele>805</ele>
        <time>2020-01-04T19:14:52Z</time>
      </trkpt>
      <trkpt lat="44.34661" lon="3.5624">
        <ele>808</ele>
        <time>2020-01-04T19:14:57Z</time>
      </trkpt>
      <trkpt lat="44.34675" lon="3.5621">
        <ele>807</ele>
        <time>2020-01-04T19:15:03Z</time>
      </trkpt>
      <trkpt lat="44.34685" lon="3.56176">
        <ele>808</ele>
        <time>2020-01-04T19:15:10Z</time>
      </trkpt>
      <trkpt lat="44.34688" lon="3.56149">
        <ele>810</ele>
        <time>2020-01-04T19:15:14Z</time>
      </trkpt>
      <trkpt lat="44.34684" lon="3.56116">
        <ele>816</ele>
        <time>2020-01-04T19:15:20Z</time>
      </trkpt>
      <trkpt lat="44.34686" lon="3.56039">
        <ele>825</ele>
        <time>2020-01-04T19:15:33Z</time>
      </trkpt>
      <trkpt lat="44.34676" lon="3.5601">
        <ele>834</ele>
        <time>2020-01-04T19:15:38Z</time>
      </trkpt>
      <trkpt lat="44.34677" lon="3.5599">
        <ele>837</ele>
        <time>2020-01-04T19:15:41Z</time>
      </trkpt>
      <trkpt lat="44.34683" lon="3.55975">
        <ele>840</ele>
        <time>2020-01-04T19:15:44Z</time>
      </trkpt>
      <trkpt lat="44.34703" lon="3.55946">
        <ele>841</ele>
        <time>2020-01-04T19:15:51Z</time>
      </trkpt>
      <trkpt lat="44.34714" lon="3.55935">
        <ele>840</ele>
        <time>2020-01-04T19:15:54Z</time>
      </trkpt>
      <trkpt lat="44.34726" lon="3.55926">
        <ele>839</ele>
        <time>2020-01-04T19:15:57Z</time>
      </trkpt>
      <trkpt lat="44.34759" lon="3.55911">
        <ele>835</ele>
        <time>2020-01-04T19:16:05Z</time>
      </trkpt>
      <trkpt lat="44.34782" lon="3.55897">
        <ele>838</ele>
        <time>2020-01-04T19:16:11Z</time>
      </trkpt>
      <trkpt lat="44.34799" lon="3.55873">
        <ele>843</ele>
        <time>2020-01-04T19:16:17Z</time>
      </trkpt>
      <trkpt lat="44.34813" lon="3.55864">
        <ele>843</ele>
        <time>2020-01-04T19:16:20Z</time>
      </trkpt>
      <trkpt lat="44.34834" lon="3.55855">
        <ele>839</ele>
        <time>2020-01-04T19:16:26Z</time>
      </trkpt>
      <trkpt lat="44.34858" lon="3.55826">
        <ele>841</ele>
        <time>2020-01-04T19:16:33Z</time>
      </trkpt>
      <trkpt lat="44.34894" lon="3.55762">
        <ele>842</ele>
        <time>2020-01-04T19:16:47Z</time>
      </trkpt>
      <trkpt lat="44.34907" lon="3.55734">
        <ele>840</ele>
        <time>2020-01-04T19:16:52Z</time>
      </trkpt>
      <trkpt lat="44.3491" lon="3.5571">
        <ele>840</ele>
        <time>2020-01-04T19:16:56Z</time>
      </trkpt>
      <trkpt lat="44.34909" lon="3.55671">
        <ele>844</ele>
        <time>2020-01-04T19:17:03Z</time>
      </trkpt>
      <trkpt lat="44.34912" lon="3.55652">
        <ele>846</ele>
        <time>2020-01-04T19:17:06Z</time>
      </trkpt>
      <trkpt lat="44.34929" lon="3.55604">
        <ele>847</ele>
        <time>2020-01-04T19:17:15Z</time>
      </trkpt>
      <trkpt lat="44.34933" lon="3.55598">
        <ele>847</ele>
        <time>2020-01-04T19:17:16Z</time>
      </trkpt>
      <trkpt lat="44.34969" lon="3.5557">
        <ele>841</ele>
        <time>2020-01-04T19:17:26Z</time>
      </trkpt>
      <trkpt lat="44.34978" lon="3.55549">
        <ele>844</ele>
        <time>2020-01-04T19:17:30Z</time>
      </trkpt>
      <trkpt lat="44.34997" lon="3.55536">
        <ele>841</ele>
        <time>2020-01-04T19:17:35Z</time>
      </trkpt>
      <trkpt lat="44.35026" lon="3.55521">
        <ele>835</ele>
        <time>2020-01-04T19:17:42Z</time>
      </trkpt>
      <trkpt lat="44.35036" lon="3.5551">
        <ele>834</ele>
        <time>2020-01-04T19:17:45Z</time>
      </trkpt>
      <trkpt lat="44.3504" lon="3.55502">
        <ele>834</ele>
        <time>2020-01-04T19:17:47Z</time>
      </trkpt>
      <trkpt lat="44.35058" lon="3.55398">
        <ele>852</ele>
        <time>2020-01-04T19:18:05Z</time>
      </trkpt>
      <trkpt lat="44.35132" lon="3.55245">
        <ele>861</ele>
        <time>2020-01-04T19:18:36Z</time>
      </trkpt>
      <trkpt lat="44.35187" lon="3.55164">
        <ele>858</ele>
        <time>2020-01-04T19:18:54Z</time>
      </trkpt>
      <trkpt lat="44.35224" lon="3.5513">
        <ele>858</ele>
        <time>2020-01-04T19:19:04Z</time>
      </trkpt>
      <trkpt lat="44.35277" lon="3.55092">
        <ele>853</ele>
        <time>2020-01-04T19:19:18Z</time>
      </trkpt>
      <trkpt lat="44.35347" lon="3.55036">
        <ele>851</ele>
        <time>2020-01-04T19:19:37Z</time>
      </trkpt>
      <trkpt lat="44.35373" lon="3.5502">
        <ele>849</ele>
        <time>2020-01-04T19:19:44Z</time>
      </trkpt>
      <trkpt lat="44.354" lon="3.54998">
        <ele>849</ele>
        <time>2020-01-04T19:19:51Z</time>
      </trkpt>
      <trkpt lat="44.35479" lon="3.54942">
        <ele>849</ele>
        <time>2020-01-04T19:20:12Z</time>
      </trkpt>
      <trkpt lat="44.35482" lon="3.54947">
        <ele>847</ele>
        <time>2020-01-04T19:20:13Z</time>
      </trkpt>
      <trkpt lat="44.3548" lon="3.54941">
        <ele>849</ele>
        <time>2020-01-04T19:20:14Z</time>
      </trkpt>
      <trkpt lat="44.3552" lon="3.54913">
        <ele>850</ele>
        <time>2020-01-04T19:20:24Z</time>
      </trkpt>
      <trkpt lat="44.35533" lon="3.54905">
        <ele>851</ele>
        <time>2020-01-04T19:20:28Z</time>
      </trkpt>
      <trkpt lat="44.35562" lon="3.54894">
        <ele>850</ele>
        <time>2020-01-04T19:20:35Z</time>
      </trkpt>
      <trkpt lat="44.35592" lon="3.54872">
        <ele>850</ele>
        <time>2020-01-04T19:20:43Z</time>
      </trkpt>
      <trkpt lat="44.3564" lon="3.5485">
        <ele>847</ele>
        <time>2020-01-04T19:20:55Z</time>
      </trkpt>
      <trkpt lat="44.35702" lon="3.54852">
        <ele>837</ele>
        <time>2020-01-04T19:21:09Z</time>
      </trkpt>
      <trkpt lat="44.35716" lon="3.54856">
        <ele>834</ele>
        <time>2020-01-04T19:21:12Z</time>
      </trkpt>
      <trkpt lat="44.35742" lon="3.54893">
        <ele>822</ele>
        <time>2020-01-04T19:21:21Z</time>
      </trkpt>
      <trkpt lat="44.35751" lon="3.54899">
        <ele>819</ele>
        <time>2020-01-04T19:21:23Z</time>
      </trkpt>
      <trkpt lat="44.35787" lon="3.54902">
        <ele>809</ele>
        <time>2020-01-04T19:21:32Z</time>
      </trkpt>
      <trkpt lat="44.35824" lon="3.54899">
        <ele>801</ele>
        <time>2020-01-04T19:21:40Z</time>
      </trkpt>
      <trkpt lat="44.35845" lon="3.54894">
        <ele>798</ele>
        <time>2020-01-04T19:21:45Z</time>
      </trkpt>
      <trkpt lat="44.35882" lon="3.54878">
        <ele>796</ele>
        <time>2020-01-04T19:21:54Z</time>
      </trkpt>
      <trkpt lat="44.35896" lon="3.54878">
        <ele>794</ele>
        <time>2020-01-04T19:21:58Z</time>
      </trkpt>
      <trkpt lat="44.35909" lon="3.54881">
        <ele>790</ele>
        <time>2020-01-04T19:22:01Z</time>
      </trkpt>
      <trkpt lat="44.35928" lon="3.54892">
        <ele>783</ele>
        <time>2020-01-04T19:22:06Z</time>
      </trkpt>
      <trkpt lat="44.35938" lon="3.54913">
        <ele>775</ele>
        <time>2020-01-04T19:22:10Z</time>
      </trkpt>
      <trkpt lat="44.35943" lon="3.54943">
        <ele>767</ele>
        <time>2020-01-04T19:22:15Z</time>
      </trkpt>
      <trkpt lat="44.35947" lon="3.54947">
        <ele>765</ele>
        <time>2020-01-04T19:22:16Z</time>
      </trkpt>
      <trkpt lat="44.35954" lon="3.5495">
        <ele>763</ele>
        <time>2020-01-04T19:22:18Z</time>
      </trkpt>
      <trkpt lat="44.35968" lon="3.5495">
        <ele>760</ele>
        <time>2020-01-04T19:22:21Z</time>
      </trkpt>
      <trkpt lat="44.36021" lon="3.54931">
        <ele>754</ele>
        <time>2020-01-04T19:22:34Z</time>
      </trkpt>
      <trkpt lat="44.36026" lon="3.54933">
        <ele>752</ele>
        <time>2020-01-04T19:22:35Z</time>
      </trkpt>
      <trkpt lat="44.3603" lon="3.54939">
        <ele>749</ele>
        <time>2020-01-04T19:22:36Z</time>
      </trkpt>
      <trkpt lat="44.36032" lon="3.54964">
        <ele>742</ele>
        <time>2020-01-04T19:22:41Z</time>
      </trkpt>
      <trkpt lat="44.36037" lon="3.54968">
        <ele>740</ele>
        <time>2020-01-04T19:22:42Z</time>
      </trkpt>
      <trkpt lat="44.36045" lon="3.54967">
        <ele>738</ele>
        <time>2020-01-04T19:22:44Z</time>
      </trkpt>
      <trkpt lat="44.36087" lon="3.54945">
        <ele>737</ele>
        <time>2020-01-04T19:22:54Z</time>
      </trkpt>
      <trkpt lat="44.36105" lon="3.54945">
        <ele>735</ele>
        <time>2020-01-04T19:22:59Z</time>
      </trkpt>
      <trkpt lat="44.36137" lon="3.5494">
        <ele>734</ele>
        <time>2020-01-04T19:23:06Z</time>
      </trkpt>
      <trkpt lat="44.36163" lon="3.54931">
        <ele>735</ele>
        <time>2020-01-04T19:23:12Z</time>
      </trkpt>
      <trkpt lat="44.36191" lon="3.54931">
        <ele>732</ele>
        <time>2020-01-04T19:23:19Z</time>
      </trkpt>
      <trkpt lat="44.36217" lon="3.54927">
        <ele>731</ele>
        <time>2020-01-04T19:23:25Z</time>
      </trkpt>
      <trkpt lat="44.36233" lon="3.54917">
        <ele>733</ele>
        <time>2020-01-04T19:23:29Z</time>
      </trkpt>
      <trkpt lat="44.36271" lon="3.54905">
        <ele>731</ele>
        <time>2020-01-04T19:23:38Z</time>
      </trkpt>
      <trkpt lat="44.36284" lon="3.54903">
        <ele>729</ele>
        <time>2020-01-04T19:23:41Z</time>
      </trkpt>
      <trkpt lat="44.36306" lon="3.54885">
        <ele>728</ele>
        <time>2020-01-04T19:23:47Z</time>
      </trkpt>
      <trkpt lat="44.36309" lon="3.54864">
        <ele>731</ele>
        <time>2020-01-04T19:23:51Z</time>
      </trkpt>
      <trkpt lat="44.3631" lon="3.54811">
        <ele>738</ele>
        <time>2020-01-04T19:24:00Z</time>
      </trkpt>
      <trkpt lat="44.36317" lon="3.54778">
        <ele>740</ele>
        <time>2020-01-04T19:24:05Z</time>
      </trkpt>
      <trkpt lat="44.36323" lon="3.54728">
        <ele>745</ele>
        <time>2020-01-04T19:24:14Z</time>
      </trkpt>
      <trkpt lat="44.3632" lon="3.54692">
        <ele>750</ele>
        <time>2020-01-04T19:24:20Z</time>
      </trkpt>
      <trkpt lat="44.36322" lon="3.54684">
        <ele>750</ele>
        <time>2020-01-04T19:24:21Z</time>
      </trkpt>
      <trkpt lat="44.36355" lon="3.54661">
        <ele>750</ele>
        <time>2020-01-04T19:24:30Z</time>
      </trkpt>
      <trkpt lat="44.36372" lon="3.54639">
        <ele>750</ele>
        <time>2020-01-04T19:24:35Z</time>
      </trkpt>
      <trkpt lat="44.3638" lon="3.54616">
        <ele>749</ele>
        <time>2020-01-04T19:24:40Z</time>
      </trkpt>
      <trkpt lat="44.36421" lon="3.54547">
        <ele>735</ele>
        <time>2020-01-04T19:24:55Z</time>
      </trkpt>
      <trkpt lat="44.36417" lon="3.54545">
        <ele>735</ele>
        <time>2020-01-04T19:24:56Z</time>
      </trkpt>
      <trkpt lat="44.3641" lon="3.54548">
        <ele>737</ele>
        <time>2020-01-04T19:24:57Z</time>
      </trkpt>
      <trkpt lat="44.36405" lon="3.54547">
        <ele>738</ele>
        <time>2020-01-04T19:24:58Z</time>
      </trkpt>
      <trkpt lat="44.36392" lon="3.54517">
        <ele>736</ele>
        <time>2020-01-04T19:25:04Z</time>
      </trkpt>
      <trkpt lat="44.36383" lon="3.54485">
        <ele>735</ele>
        <time>2020-01-04T19:25:10Z</time>
      </trkpt>
      <trkpt lat="44.36384" lon="3.54474">
        <ele>734</ele>
        <time>2020-01-04T19:25:12Z</time>
      </trkpt>
      <trkpt lat="44.3638" lon="3.54446">
        <ele>735</ele>
        <time>2020-01-04T19:25:17Z</time>
      </trkpt>
      <trkpt lat="44.36372" lon="3.54413">
        <ele>736</ele>
        <time>2020-01-04T19:25:22Z</time>
      </trkpt>
      <trkpt lat="44.36372" lon="3.54374">
        <ele>734</ele>
        <time>2020-01-04T19:25:29Z</time>
      </trkpt>
      <trkpt lat="44.36377" lon="3.54357">
        <ele>732</ele>
        <time>2020-01-04T19:25:32Z</time>
      </trkpt>
      <trkpt lat="44.36374" lon="3.5433">
        <ele>731</ele>
        <time>2020-01-04T19:25:37Z</time>
      </trkpt>
      <trkpt lat="44.36381" lon="3.54283">
        <ele>725</ele>
        <time>2020-01-04T19:25:45Z</time>
      </trkpt>
      <trkpt lat="44.3637" lon="3.5426">
        <ele>725</ele>
        <time>2020-01-04T19:25:49Z</time>
      </trkpt>
      <trkpt lat="44.36358" lon="3.5425">
        <ele>726</ele>
        <time>2020-01-04T19:25:52Z</time>
      </trkpt>
      <trkpt lat="44.36354" lon="3.54241">
        <ele>727</ele>
        <time>2020-01-04T19:25:54Z</time>
      </trkpt>
      <trkpt lat="44.3636" lon="3.54214">
        <ele>725</ele>
        <time>2020-01-04T19:25:59Z</time>
      </trkpt>
      <trkpt lat="44.36361" lon="3.54185">
        <ele>723</ele>
        <time>2020-01-04T19:26:04Z</time>
      </trkpt>
      <trkpt lat="44.3638" lon="3.54149">
        <ele>717</ele>
        <time>2020-01-04T19:26:11Z</time>
      </trkpt>
      <trkpt lat="44.36383" lon="3.54138">
        <ele>716</ele>
        <time>2020-01-04T19:26:13Z</time>
      </trkpt>
      <trkpt lat="44.36384" lon="3.54111">
        <ele>715</ele>
        <time>2020-01-04T19:26:18Z</time>
      </trkpt>
      <trkpt lat="44.36383" lon="3.54095">
        <ele>715</ele>
        <time>2020-01-04T19:26:20Z</time>
      </trkpt>
      <trkpt lat="44.36362" lon="3.54029">
        <ele>717</ele>
        <time>2020-01-04T19:26:33Z</time>
      </trkpt>
      <trkpt lat="44.36364" lon="3.54008">
        <ele>715</ele>
        <time>2020-01-04T19:26:36Z</time>
      </trkpt>
      <trkpt lat="44.36361" lon="3.53991">
        <ele>715</ele>
        <time>2020-01-04T19:26:39Z</time>
      </trkpt>
      <trkpt lat="44.36363" lon="3.53987">
        <ele>714</ele>
        <time>2020-01-04T19:26:40Z</time>
      </trkpt>
      <trkpt lat="44.36381" lon="3.53976">
        <ele>708</ele>
        <time>2020-01-04T19:26:44Z</time>
      </trkpt>
      <trkpt lat="44.36382" lon="3.53968">
        <ele>708</ele>
        <time>2020-01-04T19:26:46Z</time>
      </trkpt>
      <trkpt lat="44.36394" lon="3.53938">
        <ele>704</ele>
        <time>2020-01-04T19:26:51Z</time>
      </trkpt>
      <trkpt lat="44.36421" lon="3.53918">
        <ele>696</ele>
        <time>2020-01-04T19:26:59Z</time>
      </trkpt>
      <trkpt lat="44.3644" lon="3.53912">
        <ele>689</ele>
        <time>2020-01-04T19:27:03Z</time>
      </trkpt>
      <trkpt lat="44.36447" lon="3.53895">
        <ele>686</ele>
        <time>2020-01-04T19:27:06Z</time>
      </trkpt>
      <trkpt lat="44.3645" lon="3.53875">
        <ele>684</ele>
        <time>2020-01-04T19:27:10Z</time>
      </trkpt>
      <trkpt lat="44.36443" lon="3.53842">
        <ele>686</ele>
        <time>2020-01-04T19:27:16Z</time>
      </trkpt>
      <trkpt lat="44.36419" lon="3.53802">
        <ele>690</ele>
        <time>2020-01-04T19:27:24Z</time>
      </trkpt>
      <trkpt lat="44.36405" lon="3.53762">
        <ele>687</ele>
        <time>2020-01-04T19:27:32Z</time>
      </trkpt>
      <trkpt lat="44.36398" lon="3.5375">
        <ele>686</ele>
        <time>2020-01-04T19:27:34Z</time>
      </trkpt>
      <trkpt lat="44.36386" lon="3.53683">
        <ele>674</ele>
        <time>2020-01-04T19:27:46Z</time>
      </trkpt>
      <trkpt lat="44.36378" lon="3.53668">
        <ele>672</ele>
        <time>2020-01-04T19:27:49Z</time>
      </trkpt>
      <trkpt lat="44.3637" lon="3.53662">
        <ele>673</ele>
        <time>2020-01-04T19:27:51Z</time>
      </trkpt>
      <trkpt lat="44.36359" lon="3.53644">
        <ele>672</ele>
        <time>2020-01-04T19:27:55Z</time>
      </trkpt>
      <trkpt lat="44.36352" lon="3.53639">
        <ele>672</ele>
        <time>2020-01-04T19:27:57Z</time>
      </trkpt>
      <trkpt lat="44.36355" lon="3.53608">
        <ele>666</ele>
        <time>2020-01-04T19:28:02Z</time>
      </trkpt>
      <trkpt lat="44.36366" lon="3.53568">
        <ele>658</ele>
        <time>2020-01-04T19:28:09Z</time>
      </trkpt>
      <trkpt lat="44.36367" lon="3.53557">
        <ele>656</ele>
        <time>2020-01-04T19:28:11Z</time>
      </trkpt>
      <trkpt lat="44.36368" lon="3.53525">
        <ele>652</ele>
        <time>2020-01-04T19:28:16Z</time>
      </trkpt>
      <trkpt lat="44.36362" lon="3.53481">
        <ele>651</ele>
        <time>2020-01-04T19:28:24Z</time>
      </trkpt>
      <trkpt lat="44.36367" lon="3.53463">
        <ele>650</ele>
        <time>2020-01-04T19:28:27Z</time>
      </trkpt>
      <trkpt lat="44.36377" lon="3.5345">
        <ele>648</ele>
        <time>2020-01-04T19:28:30Z</time>
      </trkpt>
      <trkpt lat="44.3642" lon="3.53375">
        <ele>637</ele>
        <time>2020-01-04T19:28:46Z</time>
      </trkpt>
      <trkpt lat="44.36464" lon="3.53344">
        <ele>629</ele>
        <time>2020-01-04T19:28:58Z</time>
      </trkpt>
      <trkpt lat="44.36499" lon="3.53311">
        <ele>624</ele>
        <time>2020-01-04T19:29:08Z</time>
      </trkpt>
      <trkpt lat="44.36515" lon="3.53287">
        <ele>622</ele>
        <time>2020-01-04T19:29:13Z</time>
      </trkpt>
      <trkpt lat="44.36535" lon="3.53265">
        <ele>619</ele>
        <time>2020-01-04T19:29:19Z</time>
      </trkpt>
      <trkpt lat="44.36536" lon="3.53256">
        <ele>620</ele>
        <time>2020-01-04T19:29:21Z</time>
      </trkpt>
      <trkpt lat="44.36501" lon="3.53266">
        <ele>625</ele>
        <time>2020-01-04T19:29:29Z</time>
      </trkpt>
      <trkpt lat="44.36441" lon="3.53306">
        <ele>636</ele>
        <time>2020-01-04T19:29:45Z</time>
      </trkpt>
      <trkpt lat="44.36416" lon="3.53316">
        <ele>641</ele>
        <time>2020-01-04T19:29:51Z</time>
      </trkpt>
      <trkpt lat="44.36402" lon="3.53318">
        <ele>646</ele>
        <time>2020-01-04T19:29:54Z</time>
      </trkpt>
      <trkpt lat="44.36381" lon="3.53334">
        <ele>654</ele>
        <time>2020-01-04T19:30:00Z</time>
      </trkpt>
      <trkpt lat="44.36378" lon="3.5333">
        <ele>656</ele>
        <time>2020-01-04T19:30:00Z</time>
      </trkpt>
      <trkpt lat="44.36378" lon="3.53324">
        <ele>656</ele>
        <time>2020-01-04T19:30:01Z</time>
      </trkpt>
      <trkpt lat="44.36387" lon="3.53305">
        <ele>652</ele>
        <time>2020-01-04T19:30:05Z</time>
      </trkpt>
      <trkpt lat="44.36387" lon="3.53296">
        <ele>652</ele>
        <time>2020-01-04T19:30:07Z</time>
      </trkpt>
      <trkpt lat="44.36377" lon="3.53273">
        <ele>655</ele>
        <time>2020-01-04T19:30:11Z</time>
      </trkpt>
      <trkpt lat="44.36359" lon="3.53254">
        <ele>660</ele>
        <time>2020-01-04T19:30:17Z</time>
      </trkpt>
      <trkpt lat="44.36331" lon="3.53252">
        <ele>666</ele>
        <time>2020-01-04T19:30:23Z</time>
      </trkpt>
      <trkpt lat="44.36299" lon="3.53256">
        <ele>670</ele>
        <time>2020-01-04T19:30:31Z</time>
      </trkpt>
      <trkpt lat="44.36241" lon="3.53281">
        <ele>681</ele>
        <time>2020-01-04T19:30:45Z</time>
      </trkpt>
      <trkpt lat="44.36207" lon="3.53291">
        <ele>684</ele>
        <time>2020-01-04T19:30:53Z</time>
      </trkpt>
      <trkpt lat="44.36183" lon="3.53307">
        <ele>688</ele>
        <time>2020-01-04T19:30:59Z</time>
      </trkpt>
      <trkpt lat="44.36147" lon="3.53313">
        <ele>691</ele>
        <time>2020-01-04T19:31:08Z</time>
      </trkpt>
      <trkpt lat="44.36126" lon="3.5332">
        <ele>694</ele>
        <time>2020-01-04T19:31:13Z</time>
      </trkpt>
      <trkpt lat="44.3609" lon="3.53338">
        <ele>701</ele>
        <time>2020-01-04T19:31:22Z</time>
      </trkpt>
      <trkpt lat="44.36044" lon="3.5337">
        <ele>713</ele>
        <time>2020-01-04T19:31:34Z</time>
      </trkpt>
      <trkpt lat="44.36011" lon="3.53347">
        <ele>711</ele>
        <time>2020-01-04T19:31:42Z</time>
      </trkpt>
      <trkpt lat="44.35964" lon="3.53334">
        <ele>714</ele>
        <time>2020-01-04T19:31:53Z</time>
      </trkpt>
      <trkpt lat="44.35956" lon="3.5333">
        <ele>715</ele>
        <time>2020-01-04T19:31:55Z</time>
      </trkpt>
      <trkpt lat="44.35952" lon="3.53325">
        <ele>714</ele>
        <time>2020-01-04T19:31:57Z</time>
      </trkpt>
      <trkpt lat="44.35948" lon="3.53324">
        <ele>715</ele>
        <time>2020-01-04T19:31:58Z</time>
      </trkpt>
      <trkpt lat="44.35945" lon="3.53326">
        <ele>716</ele>
        <time>2020-01-04T19:31:58Z</time>
      </trkpt>
      <trkpt lat="44.35949" lon="3.53336">
        <ele>717</ele>
        <time>2020-01-04T19:32:00Z</time>
      </trkpt>
      <trkpt lat="44.35978" lon="3.5336">
        <ele>719</ele>
        <time>2020-01-04T19:32:08Z</time>
      </trkpt>
      <trkpt lat="44.35995" lon="3.53368">
        <ele>719</ele>
        <time>2020-01-04T19:32:12Z</time>
      </trkpt>
      <trkpt lat="44.3601" lon="3.53383">
        <ele>721</ele>
        <time>2020-01-04T19:32:17Z</time>
      </trkpt>
      <trkpt lat="44.36024" lon="3.53399">
        <ele>723</ele>
        <time>2020-01-04T19:32:21Z</time>
      </trkpt>
      <trkpt lat="44.36071" lon="3.5347">
        <ele>728</ele>
        <time>2020-01-04T19:32:37Z</time>
      </trkpt>
      <trkpt lat="44.36075" lon="3.535">
        <ele>732</ele>
        <time>2020-01-04T19:32:42Z</time>
      </trkpt>
      <trkpt lat="44.36068" lon="3.5356">
        <ele>740</ele>
        <time>2020-01-04T19:32:52Z</time>
      </trkpt>
      <trkpt lat="44.36069" lon="3.5358">
        <ele>742</ele>
        <time>2020-01-04T19:32:56Z</time>
      </trkpt>
      <trkpt lat="44.36071" lon="3.53595">
        <ele>744</ele>
        <time>2020-01-04T19:32:58Z</time>
      </trkpt>
      <trkpt lat="44.36085" lon="3.53626">
        <ele>745</ele>
        <time>2020-01-04T19:33:04Z</time>
      </trkpt>
      <trkpt lat="44.36081" lon="3.53633">
        <ele>748</ele>
        <time>2020-01-04T19:33:06Z</time>
      </trkpt>
      <trkpt lat="44.36076" lon="3.53633">
        <ele>750</ele>
        <time>2020-01-04T19:33:07Z</time>
      </trkpt>
      <trkpt lat="44.36068" lon="3.53627">
        <ele>752</ele>
        <time>2020-01-04T19:33:09Z</time>
      </trkpt>
      <trkpt lat="44.36041" lon="3.53557">
        <ele>749</ele>
        <time>2020-01-04T19:33:22Z</time>
      </trkpt>
      <trkpt lat="44.36035" lon="3.53547">
        <ele>750</ele>
        <time>2020-01-04T19:33:24Z</time>
      </trkpt>
      <trkpt lat="44.35991" lon="3.53507">
        <ele>757</ele>
        <time>2020-01-04T19:33:37Z</time>
      </trkpt>
      <trkpt lat="44.35986" lon="3.53505">
        <ele>757</ele>
        <time>2020-01-04T19:33:38Z</time>
      </trkpt>
      <trkpt lat="44.3598" lon="3.53506">
        <ele>757</ele>
        <time>2020-01-04T19:33:39Z</time>
      </trkpt>
      <trkpt lat="44.35968" lon="3.53511">
        <ele>759</ele>
        <time>2020-01-04T19:33:42Z</time>
      </trkpt>
      <trkpt lat="44.35915" lon="3.53541">
        <ele>772</ele>
        <time>2020-01-04T19:33:56Z</time>
      </trkpt>
      <trkpt lat="44.35891" lon="3.53543">
        <ele>777</ele>
        <time>2020-01-04T19:34:01Z</time>
      </trkpt>
      <trkpt lat="44.35881" lon="3.53537">
        <ele>777</ele>
        <time>2020-01-04T19:34:04Z</time>
      </trkpt>
      <trkpt lat="44.35857" lon="3.53511">
        <ele>772</ele>
        <time>2020-01-04T19:34:11Z</time>
      </trkpt>
      <trkpt lat="44.35851" lon="3.53508">
        <ele>772</ele>
        <time>2020-01-04T19:34:12Z</time>
      </trkpt>
      <trkpt lat="44.35822" lon="3.53511">
        <ele>778</ele>
        <time>2020-01-04T19:34:19Z</time>
      </trkpt>
      <trkpt lat="44.35784" lon="3.53507">
        <ele>784</ele>
        <time>2020-01-04T19:34:28Z</time>
      </trkpt>
      <trkpt lat="44.35733" lon="3.53495">
        <ele>793</ele>
        <time>2020-01-04T19:34:40Z</time>
      </trkpt>
      <trkpt lat="44.3572" lon="3.53488">
        <ele>796</ele>
        <time>2020-01-04T19:34:43Z</time>
      </trkpt>
      <trkpt lat="44.35707" lon="3.53478">
        <ele>799</ele>
        <time>2020-01-04T19:34:47Z</time>
      </trkpt>
      <trkpt lat="44.35698" lon="3.53465">
        <ele>798</ele>
        <time>2020-01-04T19:34:50Z</time>
      </trkpt>
      <trkpt lat="44.35665" lon="3.53401">
        <ele>794</ele>
        <time>2020-01-04T19:35:03Z</time>
      </trkpt>
      <trkpt lat="44.35636" lon="3.53362">
        <ele>787</ele>
        <time>2020-01-04T19:35:12Z</time>
      </trkpt>
      <trkpt lat="44.35628" lon="3.53357">
        <ele>786</ele>
        <time>2020-01-04T19:35:14Z</time>
      </trkpt>
      <trkpt lat="44.35624" lon="3.53357">
        <ele>787</ele>
        <time>2020-01-04T19:35:15Z</time>
      </trkpt>
      <trkpt lat="44.35619" lon="3.53364">
        <ele>789</ele>
        <time>2020-01-04T19:35:17Z</time>
      </trkpt>
      <trkpt lat="44.35615" lon="3.53392">
        <ele>797</ele>
        <time>2020-01-04T19:35:22Z</time>
      </trkpt>
      <trkpt lat="44.35609" lon="3.53406">
        <ele>801</ele>
        <time>2020-01-04T19:35:25Z</time>
      </trkpt>
      <trkpt lat="44.35594" lon="3.53426">
        <ele>809</ele>
        <time>2020-01-04T19:35:29Z</time>
      </trkpt>
      <trkpt lat="44.35578" lon="3.53433">
        <ele>812</ele>
        <time>2020-01-04T19:35:33Z</time>
      </trkpt>
      <trkpt lat="44.35542" lon="3.53441">
        <ele>808</ele>
        <time>2020-01-04T19:35:42Z</time>
      </trkpt>
      <trkpt lat="44.35503" lon="3.53461">
        <ele>809</ele>
        <time>2020-01-04T19:35:52Z</time>
      </trkpt>
      <trkpt lat="44.35488" lon="3.53475">
        <ele>810</ele>
        <time>2020-01-04T19:35:56Z</time>
      </trkpt>
      <trkpt lat="44.35476" lon="3.535">
        <ele>816</ele>
        <time>2020-01-04T19:36:01Z</time>
      </trkpt>
      <trkpt lat="44.35466" lon="3.53515">
        <ele>816</ele>
        <time>2020-01-04T19:36:04Z</time>
      </trkpt>
      <trkpt lat="44.35461" lon="3.53552">
        <ele>826</ele>
        <time>2020-01-04T19:36:10Z</time>
      </trkpt>
      <trkpt lat="44.3545" lon="3.53578">
        <ele>829</ele>
        <time>2020-01-04T19:36:16Z</time>
      </trkpt>
      <trkpt lat="44.35445" lon="3.53608">
        <ele>834</ele>
        <time>2020-01-04T19:36:21Z</time>
      </trkpt>
      <trkpt lat="44.35441" lon="3.53617">
        <ele>834</ele>
        <time>2020-01-04T19:36:22Z</time>
      </trkpt>
      <trkpt lat="44.35404" lon="3.53647">
        <ele>826</ele>
        <time>2020-01-04T19:36:32Z</time>
      </trkpt>
      <trkpt lat="44.35391" lon="3.53664">
        <ele>827</ele>
        <time>2020-01-04T19:36:37Z</time>
      </trkpt>
      <trkpt lat="44.35391" lon="3.53684">
        <ele>832</ele>
        <time>2020-01-04T19:36:40Z</time>
      </trkpt>
      <trkpt lat="44.35404" lon="3.53733">
        <ele>846</ele>
        <time>2020-01-04T19:36:49Z</time>
      </trkpt>
      <trkpt lat="44.35401" lon="3.53746">
        <ele>847</ele>
        <time>2020-01-04T19:36:51Z</time>
      </trkpt>
      <trkpt lat="44.35396" lon="3.53751">
        <ele>847</ele>
        <time>2020-01-04T19:36:52Z</time>
      </trkpt>
      <trkpt lat="44.35365" lon="3.53755">
        <ele>838</ele>
        <time>2020-01-04T19:37:00Z</time>
      </trkpt>
      <trkpt lat="44.35356" lon="3.53765">
        <ele>838</ele>
        <time>2020-01-04T19:37:02Z</time>
      </trkpt>
      <trkpt lat="44.35351" lon="3.53776">
        <ele>839</ele>
        <time>2020-01-04T19:37:04Z</time>
      </trkpt>
      <trkpt lat="44.35334" lon="3.53843">
        <ele>849</ele>
        <time>2020-01-04T19:37:16Z</time>
      </trkpt>
      <trkpt lat="44.35335" lon="3.53865">
        <ele>855</ele>
        <time>2020-01-04T19:37:20Z</time>
      </trkpt>
      <trkpt lat="44.35347" lon="3.53914">
        <ele>872</ele>
        <time>2020-01-04T19:37:29Z</time>
      </trkpt>
      <trkpt lat="44.35344" lon="3.53918">
        <ele>872</ele>
        <time>2020-01-04T19:37:30Z</time>
      </trkpt>
      <trkpt lat="44.35327" lon="3.53922">
        <ele>870</ele>
        <time>2020-01-04T19:37:34Z</time>
      </trkpt>
      <trkpt lat="44.35315" lon="3.53931">
        <ele>873</ele>
        <time>2020-01-04T19:37:37Z</time>
      </trkpt>
      <trkpt lat="44.35308" lon="3.53929">
        <ele>873</ele>
        <time>2020-01-04T19:37:39Z</time>
      </trkpt>
      <trkpt lat="44.35307" lon="3.53924">
        <ele>871</ele>
        <time>2020-01-04T19:37:39Z</time>
      </trkpt>
      <trkpt lat="44.35292" lon="3.53913">
        <ele>867</ele>
        <time>2020-01-04T19:37:43Z</time>
      </trkpt>
      <trkpt lat="44.35238" lon="3.53917">
        <ele>871</ele>
        <time>2020-01-04T19:37:56Z</time>
      </trkpt>
      <trkpt lat="44.35223" lon="3.53916">
        <ele>875</ele>
        <time>2020-01-04T19:37:59Z</time>
      </trkpt>
      <trkpt lat="44.35187" lon="3.53905">
        <ele>886</ele>
        <time>2020-01-04T19:38:08Z</time>
      </trkpt>
      <trkpt lat="44.35174" lon="3.53899">
        <ele>891</ele>
        <time>2020-01-04T19:38:11Z</time>
      </trkpt>
      <trkpt lat="44.35169" lon="3.53894">
        <ele>893</ele>
        <time>2020-01-04T19:38:13Z</time>
      </trkpt>
      <trkpt lat="44.3517" lon="3.53882">
        <ele>894</ele>
        <time>2020-01-04T19:38:15Z</time>
      </trkpt>
      <trkpt lat="44.35176" lon="3.53871">
        <ele>893</ele>
        <time>2020-01-04T19:38:17Z</time>
      </trkpt>
      <trkpt lat="44.35202" lon="3.53838">
        <ele>882</ele>
        <time>2020-01-04T19:38:25Z</time>
      </trkpt>
      <trkpt lat="44.35208" lon="3.53819">
        <ele>880</ele>
        <time>2020-01-04T19:38:29Z</time>
      </trkpt>
      <trkpt lat="44.35205" lon="3.53784">
        <ele>885</ele>
        <time>2020-01-04T19:38:35Z</time>
      </trkpt>
      <trkpt lat="44.35195" lon="3.53724">
        <ele>892</ele>
        <time>2020-01-04T19:38:45Z</time>
      </trkpt>
      <trkpt lat="44.35177" lon="3.53668">
        <ele>899</ele>
        <time>2020-01-04T19:38:55Z</time>
      </trkpt>
      <trkpt lat="44.35173" lon="3.5357">
        <ele>889</ele>
        <time>2020-01-04T19:39:12Z</time>
      </trkpt>
      <trkpt lat="44.35165" lon="3.53562">
        <ele>892</ele>
        <time>2020-01-04T19:39:14Z</time>
      </trkpt>
      <trkpt lat="44.35155" lon="3.53558">
        <ele>894</ele>
        <time>2020-01-04T19:39:16Z</time>
      </trkpt>
      <trkpt lat="44.35146" lon="3.53549">
        <ele>895</ele>
        <time>2020-01-04T19:39:19Z</time>
      </trkpt>
      <trkpt lat="44.3513" lon="3.53523">
        <ele>894</ele>
        <time>2020-01-04T19:39:25Z</time>
      </trkpt>
      <trkpt lat="44.35122" lon="3.53514">
        <ele>893</ele>
        <time>2020-01-04T19:39:27Z</time>
      </trkpt>
      <trkpt lat="44.35112" lon="3.53509">
        <ele>895</ele>
        <time>2020-01-04T19:39:29Z</time>
      </trkpt>
      <trkpt lat="44.35098" lon="3.53506">
        <ele>898</ele>
        <time>2020-01-04T19:39:33Z</time>
      </trkpt>
      <trkpt lat="44.35087" lon="3.53499">
        <ele>899</ele>
        <time>2020-01-04T19:39:36Z</time>
      </trkpt>
      <trkpt lat="44.35054" lon="3.53461">
        <ele>903</ele>
        <time>2020-01-04T19:39:46Z</time>
      </trkpt>
      <trkpt lat="44.35043" lon="3.53444">
        <ele>903</ele>
        <time>2020-01-04T19:39:49Z</time>
      </trkpt>
      <trkpt lat="44.35031" lon="3.53414">
        <ele>901</ele>
        <time>2020-01-04T19:39:55Z</time>
      </trkpt>
      <trkpt lat="44.35016" lon="3.53397">
        <ele>906</ele>
        <time>2020-01-04T19:40:00Z</time>
      </trkpt>
      <trkpt lat="44.35007" lon="3.53391">
        <ele>909</ele>
        <time>2020-01-04T19:40:02Z</time>
      </trkpt>
      <trkpt lat="44.34969" lon="3.53375">
        <ele>914</ele>
        <time>2020-01-04T19:40:11Z</time>
      </trkpt>
      <trkpt lat="44.34967" lon="3.53362">
        <ele>914</ele>
        <time>2020-01-04T19:40:13Z</time>
      </trkpt>
      <trkpt lat="44.34971" lon="3.53352">
        <ele>914</ele>
        <time>2020-01-04T19:40:15Z</time>
      </trkpt>
      <trkpt lat="44.34987" lon="3.53336">
        <ele>913</ele>
        <time>2020-01-04T19:40:20Z</time>
      </trkpt>
      <trkpt lat="44.35008" lon="3.53322">
        <ele>912</ele>
        <time>2020-01-04T19:40:25Z</time>
      </trkpt>
      <trkpt lat="44.35005" lon="3.53311">
        <ele>916</ele>
        <time>2020-01-04T19:40:27Z</time>
      </trkpt>
      <trkpt lat="44.34998" lon="3.53311">
        <ele>917</ele>
        <time>2020-01-04T19:40:29Z</time>
      </trkpt>
      <trkpt lat="44.34981" lon="3.53326">
        <ele>915</ele>
        <time>2020-01-04T19:40:34Z</time>
      </trkpt>
      <trkpt lat="44.34934" lon="3.53352">
        <ele>916</ele>
        <time>2020-01-04T19:40:46Z</time>
      </trkpt>
      <trkpt lat="44.34901" lon="3.53394">
        <ele>917</ele>
        <time>2020-01-04T19:40:56Z</time>
      </trkpt>
      <trkpt lat="44.34841" lon="3.5345">
        <ele>923</ele>
        <time>2020-01-04T19:41:13Z</time>
      </trkpt>
      <trkpt lat="44.34794" lon="3.53489">
        <ele>927</ele>
        <time>2020-01-04T19:41:26Z</time>
      </trkpt>
      <trkpt lat="44.34749" lon="3.5355">
        <ele>934</ele>
        <time>2020-01-04T19:41:40Z</time>
      </trkpt>
      <trkpt lat="44.34696" lon="3.53631">
        <ele>943</ele>
        <time>2020-01-04T19:41:59Z</time>
      </trkpt>
      <trkpt lat="44.34654" lon="3.53673">
        <ele>948</ele>
        <time>2020-01-04T19:42:11Z</time>
      </trkpt>
      <trkpt lat="44.34643" lon="3.53674">
        <ele>949</ele>
        <time>2020-01-04T19:42:13Z</time>
      </trkpt>
      <trkpt lat="44.34605" lon="3.53663">
        <ele>950</ele>
        <time>2020-01-04T19:42:22Z</time>
      </trkpt>
      <trkpt lat="44.3458" lon="3.53659">
        <ele>951</ele>
        <time>2020-01-04T19:42:28Z</time>
      </trkpt>
      <trkpt lat="44.34563" lon="3.53664">
        <ele>952</ele>
        <time>2020-01-04T19:42:32Z</time>
      </trkpt>
      <trkpt lat="44.34532" lon="3.53682">
        <ele>954</ele>
        <time>2020-01-04T19:42:40Z</time>
      </trkpt>
      <trkpt lat="44.34527" lon="3.53691">
        <ele>955</ele>
        <time>2020-01-04T19:42:42Z</time>
      </trkpt>
      <trkpt lat="44.34524" lon="3.53708">
        <ele>957</ele>
        <time>2020-01-04T19:42:45Z</time>
      </trkpt>
      <trkpt lat="44.3454" lon="3.53788">
        <ele>965</ele>
        <time>2020-01-04T19:42:59Z</time>
      </trkpt>
      <trkpt lat="44.34539" lon="3.53845">
        <ele>969</ele>
        <time>2020-01-04T19:43:08Z</time>
      </trkpt>
      <trkpt lat="44.34506" lon="3.54037">
        <ele>976</ele>
        <time>2020-01-04T19:43:41Z</time>
      </trkpt>
      <trkpt lat="44.34491" lon="3.54097">
        <ele>979</ele>
        <time>2020-01-04T19:43:52Z</time>
      </trkpt>
      <trkpt lat="44.34453" lon="3.54054">
        <ele>979</ele>
        <time>2020-01-04T19:44:03Z</time>
      </trkpt>
      <trkpt lat="44.34449" lon="3.54045">
        <ele>979</ele>
        <time>2020-01-04T19:44:05Z</time>
      </trkpt>
      <trkpt lat="44.34445" lon="3.54004">
        <ele>977</ele>
        <time>2020-01-04T19:44:12Z</time>
      </trkpt>
      <trkpt lat="44.34447" lon="3.53974">
        <ele>977</ele>
        <time>2020-01-04T19:44:17Z</time>
      </trkpt>
      <trkpt lat="44.3444" lon="3.53878">
        <ele>975</ele>
        <time>2020-01-04T19:44:33Z</time>
      </trkpt>
      <trkpt lat="44.34421" lon="3.53826">
        <ele>976</ele>
        <time>2020-01-04T19:44:43Z</time>
      </trkpt>
      <trkpt lat="44.34402" lon="3.53818">
        <ele>976</ele>
        <time>2020-01-04T19:44:47Z</time>
      </trkpt>
      <trkpt lat="44.34391" lon="3.53803">
        <ele>975</ele>
        <time>2020-01-04T19:44:51Z</time>
      </trkpt>
      <trkpt lat="44.34376" lon="3.53792">
        <ele>975</ele>
        <time>2020-01-04T19:44:55Z</time>
      </trkpt>
      <trkpt lat="44.34329" lon="3.53768">
        <ele>976</ele>
        <time>2020-01-04T19:45:07Z</time>
      </trkpt>
      <trkpt lat="44.34318" lon="3.5376">
        <ele>976</ele>
        <time>2020-01-04T19:45:10Z</time>
      </trkpt>
      <trkpt lat="44.34299" lon="3.53734">
        <ele>974</ele>
        <time>2020-01-04T19:45:16Z</time>
      </trkpt>
      <trkpt lat="44.34258" lon="3.53695">
        <ele>970</ele>
        <time>2020-01-04T19:45:27Z</time>
      </trkpt>
      <trkpt lat="44.34237" lon="3.5368">
        <ele>968</ele>
        <time>2020-01-04T19:45:33Z</time>
      </trkpt>
      <trkpt lat="44.34146" lon="3.53627">
        <ele>963</ele>
        <time>2020-01-04T19:45:56Z</time>
      </trkpt>
      <trkpt lat="44.34127" lon="3.5361">
        <ele>961</ele>
        <time>2020-01-04T19:46:01Z</time>
      </trkpt>
      <trkpt lat="44.34121" lon="3.53601">
        <ele>960</ele>
        <time>2020-01-04T19:46:03Z</time>
      </trkpt>
      <trkpt lat="44.34099" lon="3.53586">
        <ele>958</ele>
        <time>2020-01-04T19:46:09Z</time>
      </trkpt>
      <trkpt lat="44.34067" lon="3.53556">
        <ele>954</ele>
        <time>2020-01-04T19:46:18Z</time>
      </trkpt>
      <trkpt lat="44.34054" lon="3.53549">
        <ele>952</ele>
        <time>2020-01-04T19:46:21Z</time>
      </trkpt>
      <trkpt lat="44.34005" lon="3.53537">
        <ele>951</ele>
        <time>2020-01-04T19:46:33Z</time>
      </trkpt>
      <trkpt lat="44.33955" lon="3.53541">
        <ele>954</ele>
        <time>2020-01-04T19:46:44Z</time>
      </trkpt>
      <trkpt lat="44.33945" lon="3.5353">
        <ele>953</ele>
        <time>2020-01-04T19:46:47Z</time>
      </trkpt>
      <trkpt lat="44.3391" lon="3.53479">
        <ele>948</ele>
        <time>2020-01-04T19:46:59Z</time>
      </trkpt>
      <trkpt lat="44.33908" lon="3.5347">
        <ele>947</ele>
        <time>2020-01-04T19:47:01Z</time>
      </trkpt>
      <trkpt lat="44.33917" lon="3.53406">
        <ele>942</ele>
        <time>2020-01-04T19:47:12Z</time>
      </trkpt>
      <trkpt lat="44.33915" lon="3.53391">
        <ele>942</ele>
        <time>2020-01-04T19:47:14Z</time>
      </trkpt>
      <trkpt lat="44.3391" lon="3.53386">
        <ele>942</ele>
        <time>2020-01-04T19:47:16Z</time>
      </trkpt>
      <trkpt lat="44.33891" lon="3.53378">
        <ele>941</ele>
        <time>2020-01-04T19:47:20Z</time>
      </trkpt>
      <trkpt lat="44.33874" lon="3.53348">
        <ele>941</ele>
        <time>2020-01-04T19:47:27Z</time>
      </trkpt>
      <trkpt lat="44.33846" lon="3.53318">
        <ele>939</ele>
        <time>2020-01-04T19:47:35Z</time>
      </trkpt>
      <trkpt lat="44.33829" lon="3.53294">
        <ele>939</ele>
        <time>2020-01-04T19:47:41Z</time>
      </trkpt>
      <trkpt lat="44.33814" lon="3.53286">
        <ele>937</ele>
        <time>2020-01-04T19:47:44Z</time>
      </trkpt>
      <trkpt lat="44.3379" lon="3.53253">
        <ele>935</ele>
        <time>2020-01-04T19:47:52Z</time>
      </trkpt>
      <trkpt lat="44.33745" lon="3.5323">
        <ele>929</ele>
        <time>2020-01-04T19:48:03Z</time>
      </trkpt>
      <trkpt lat="44.33719" lon="3.53204">
        <ele>928</ele>
        <time>2020-01-04T19:48:11Z</time>
      </trkpt>
      <trkpt lat="44.33704" lon="3.53193">
        <ele>927</ele>
        <time>2020-01-04T19:48:15Z</time>
      </trkpt>
      <trkpt lat="44.33681" lon="3.53163">
        <ele>926</ele>
        <time>2020-01-04T19:48:22Z</time>
      </trkpt>
      <trkpt lat="44.33661" lon="3.53144">
        <ele>924</ele>
        <time>2020-01-04T19:48:28Z</time>
      </trkpt>
      <trkpt lat="44.33646" lon="3.5312">
        <ele>923</ele>
        <time>2020-01-04T19:48:33Z</time>
      </trkpt>
      <trkpt lat="44.33644" lon="3.53092">
        <ele>924</ele>
        <time>2020-01-04T19:48:38Z</time>
      </trkpt>
      <trkpt lat="44.33638" lon="3.53065">
        <ele>926</ele>
        <time>2020-01-04T19:48:43Z</time>
      </trkpt>
      <trkpt lat="44.33621" lon="3.5305">
        <ele>924</ele>
        <time>2020-01-04T19:48:47Z</time>
      </trkpt>
      <trkpt lat="44.33604" lon="3.53028">
        <ele>924</ele>
        <time>2020-01-04T19:48:53Z</time>
      </trkpt>
      <trkpt lat="44.33586" lon="3.53019">
        <ele>922</ele>
        <time>2020-01-04T19:48:57Z</time>
      </trkpt>
      <trkpt lat="44.33509" lon="3.53013">
        <ele>912</ele>
        <time>2020-01-04T19:49:15Z</time>
      </trkpt>
      <trkpt lat="44.33468" lon="3.53">
        <ele>909</ele>
        <time>2020-01-04T19:49:25Z</time>
      </trkpt>
      <trkpt lat="44.3346" lon="3.52996">
        <ele>908</ele>
        <time>2020-01-04T19:49:27Z</time>
      </trkpt>
      <trkpt lat="44.33453" lon="3.52989">
        <ele>907</ele>
        <time>2020-01-04T19:49:29Z</time>
      </trkpt>
      <trkpt lat="44.33428" lon="3.52981">
        <ele>905</ele>
        <time>2020-01-04T19:49:35Z</time>
      </trkpt>
      <trkpt lat="44.33372" lon="3.52891">
        <ele>902</ele>
        <time>2020-01-04T19:49:55Z</time>
      </trkpt>
      <trkpt lat="44.33335" lon="3.52841">
        <ele>899</ele>
        <time>2020-01-04T19:50:07Z</time>
      </trkpt>
      <trkpt lat="44.33292" lon="3.52803">
        <ele>898</ele>
        <time>2020-01-04T19:50:19Z</time>
      </trkpt>
      <trkpt lat="44.33243" lon="3.52743">
        <ele>898</ele>
        <time>2020-01-04T19:50:34Z</time>
      </trkpt>
      <trkpt lat="44.33209" lon="3.52717">
        <ele>899</ele>
        <time>2020-01-04T19:50:43Z</time>
      </trkpt>
      <trkpt lat="44.33172" lon="3.52704">
        <ele>896</ele>
        <time>2020-01-04T19:50:52Z</time>
      </trkpt>
      <trkpt lat="44.3314" lon="3.52685">
        <ele>895</ele>
        <time>2020-01-04T19:51:00Z</time>
      </trkpt>
      <trkpt lat="44.33123" lon="3.5267">
        <ele>895</ele>
        <time>2020-01-04T19:51:05Z</time>
      </trkpt>
      <trkpt lat="44.33078" lon="3.52646">
        <ele>893</ele>
        <time>2020-01-04T19:51:16Z</time>
      </trkpt>
      <trkpt lat="44.33037" lon="3.52601">
        <ele>893</ele>
        <time>2020-01-04T19:51:28Z</time>
      </trkpt>
      <trkpt lat="44.33007" lon="3.52577">
        <ele>891</ele>
        <time>2020-01-04T19:51:36Z</time>
      </trkpt>
      <trkpt lat="44.32988" lon="3.52567">
        <ele>890</ele>
        <time>2020-01-04T19:51:41Z</time>
      </trkpt>
      <trkpt lat="44.32885" lon="3.52498">
        <ele>890</ele>
        <time>2020-01-04T19:52:08Z</time>
      </trkpt>
      <trkpt lat="44.32855" lon="3.52489">
        <ele>890</ele>
        <time>2020-01-04T19:52:15Z</time>
      </trkpt>
      <trkpt lat="44.32818" lon="3.52509">
        <ele>890</ele>
        <time>2020-01-04T19:52:24Z</time>
      </trkpt>
      <trkpt lat="44.3279" lon="3.52485">
        <ele>892</ele>
        <time>2020-01-04T19:52:32Z</time>
      </trkpt>
      <trkpt lat="44.32745" lon="3.52427">
        <ele>891</ele>
        <time>2020-01-04T19:52:46Z</time>
      </trkpt>
      <trkpt lat="44.32724" lon="3.52408">
        <ele>890</ele>
        <time>2020-01-04T19:52:52Z</time>
      </trkpt>
      <trkpt lat="44.32698" lon="3.52395">
        <ele>890</ele>
        <time>2020-01-04T19:52:58Z</time>
      </trkpt>
      <trkpt lat="44.32681" lon="3.52397">
        <ele>891</ele>
        <time>2020-01-04T19:53:02Z</time>
      </trkpt>
      <trkpt lat="44.32668" lon="3.52393">
        <ele>891</ele>
        <time>2020-01-04T19:53:05Z</time>
      </trkpt>
      <trkpt lat="44.32647" lon="3.5238">
        <ele>893</ele>
        <time>2020-01-04T19:53:11Z</time>
      </trkpt>
      <trkpt lat="44.32631" lon="3.52374">
        <ele>895</ele>
        <time>2020-01-04T19:53:15Z</time>
      </trkpt>
      <trkpt lat="44.32623" lon="3.52367">
        <ele>895</ele>
        <time>2020-01-04T19:53:17Z</time>
      </trkpt>
      <trkpt lat="44.32599" lon="3.52331">
        <ele>897</ele>
        <time>2020-01-04T19:53:25Z</time>
      </trkpt>
      <trkpt lat="44.32593" lon="3.52316">
        <ele>898</ele>
        <time>2020-01-04T19:53:28Z</time>
      </trkpt>
      <trkpt lat="44.32584" lon="3.52303">
        <ele>899</ele>
        <time>2020-01-04T19:53:31Z</time>
      </trkpt>
      <trkpt lat="44.3258" lon="3.52286">
        <ele>899</ele>
        <time>2020-01-04T19:53:34Z</time>
      </trkpt>
      <trkpt lat="44.32552" lon="3.52223">
        <ele>900</ele>
        <time>2020-01-04T19:53:46Z</time>
      </trkpt>
      <trkpt lat="44.32533" lon="3.52204">
        <ele>900</ele>
        <time>2020-01-04T19:53:52Z</time>
      </trkpt>
      <trkpt lat="44.3252" lon="3.52198">
        <ele>901</ele>
        <time>2020-01-04T19:53:55Z</time>
      </trkpt>
      <trkpt lat="44.32503" lon="3.52198">
        <ele>902</ele>
        <time>2020-01-04T19:53:59Z</time>
      </trkpt>
      <trkpt lat="44.32486" lon="3.52191">
        <ele>902</ele>
        <time>2020-01-04T19:54:03Z</time>
      </trkpt>
      <trkpt lat="44.32464" lon="3.52196">
        <ele>904</ele>
        <time>2020-01-04T19:54:08Z</time>
      </trkpt>
      <trkpt lat="44.32432" lon="3.52191">
        <ele>904</ele>
        <time>2020-01-04T19:54:16Z</time>
      </trkpt>
      <trkpt lat="44.32419" lon="3.52183">
        <ele>903</ele>
        <time>2020-01-04T19:54:19Z</time>
      </trkpt>
      <trkpt lat="44.32402" lon="3.52155">
        <ele>900</ele>
        <time>2020-01-04T19:54:25Z</time>
      </trkpt>
      <trkpt lat="44.3238" lon="3.52138">
        <ele>898</ele>
        <time>2020-01-04T19:54:31Z</time>
      </trkpt>
      <trkpt lat="44.32338" lon="3.52129">
        <ele>897</ele>
        <time>2020-01-04T19:54:41Z</time>
      </trkpt>
      <trkpt lat="44.32331" lon="3.52123">
        <ele>896</ele>
        <time>2020-01-04T19:54:43Z</time>
      </trkpt>
      <trkpt lat="44.32323" lon="3.52097">
        <ele>893</ele>
        <time>2020-01-04T19:54:48Z</time>
      </trkpt>
      <trkpt lat="44.32286" lon="3.52047">
        <ele>890</ele>
        <time>2020-01-04T19:55:00Z</time>
      </trkpt>
      <trkpt lat="44.32277" lon="3.52043">
        <ele>890</ele>
        <time>2020-01-04T19:55:02Z</time>
      </trkpt>
      <trkpt lat="44.32262" lon="3.52041">
        <ele>890</ele>
        <time>2020-01-04T19:55:05Z</time>
      </trkpt>
      <trkpt lat="44.32237" lon="3.52041">
        <ele>890</ele>
        <time>2020-01-04T19:55:11Z</time>
      </trkpt>
      <trkpt lat="44.32232" lon="3.52035">
        <ele>889</ele>
        <time>2020-01-04T19:55:13Z</time>
      </trkpt>
      <trkpt lat="44.32228" lon="3.5199">
        <ele>886</ele>
        <time>2020-01-04T19:55:20Z</time>
      </trkpt>
      <trkpt lat="44.32222" lon="3.51966">
        <ele>884</ele>
        <time>2020-01-04T19:55:25Z</time>
      </trkpt>
      <trkpt lat="44.32217" lon="3.51959">
        <ele>883</ele>
        <time>2020-01-04T19:55:26Z</time>
      </trkpt>
      <trkpt lat="44.32189" lon="3.51938">
        <ele>882</ele>
        <time>2020-01-04T19:55:34Z</time>
      </trkpt>
      <trkpt lat="44.32185" lon="3.51929">
        <ele>882</ele>
        <time>2020-01-04T19:55:36Z</time>
      </trkpt>
      <trkpt lat="44.322" lon="3.5188">
        <ele>880</ele>
        <time>2020-01-04T19:55:44Z</time>
      </trkpt>
      <trkpt lat="44.32224" lon="3.51816">
        <ele>878</ele>
        <time>2020-01-04T19:55:57Z</time>
      </trkpt>
      <trkpt lat="44.32224" lon="3.51801">
        <ele>877</ele>
        <time>2020-01-04T19:55:59Z</time>
      </trkpt>
      <trkpt lat="44.3222" lon="3.51799">
        <ele>877</ele>
        <time>2020-01-04T19:56:00Z</time>
      </trkpt>
      <trkpt lat="44.32224" lon="3.51784">
        <ele>877</ele>
        <time>2020-01-04T19:56:03Z</time>
      </trkpt>
      <trkpt lat="44.32224" lon="3.51764">
        <ele>876</ele>
        <time>2020-01-04T19:56:06Z</time>
      </trkpt>
      <trkpt lat="44.32232" lon="3.51732">
        <ele>874</ele>
        <time>2020-01-04T19:56:12Z</time>
      </trkpt>
      <trkpt lat="44.3223" lon="3.51717">
        <ele>873</ele>
        <time>2020-01-04T19:56:14Z</time>
      </trkpt>
      <trkpt lat="44.32211" lon="3.51681">
        <ele>873</ele>
        <time>2020-01-04T19:56:22Z</time>
      </trkpt>
      <trkpt lat="44.32185" lon="3.51668">
        <ele>874</ele>
        <time>2020-01-04T19:56:28Z</time>
      </trkpt>
      <trkpt lat="44.32174" lon="3.51665">
        <ele>875</ele>
        <time>2020-01-04T19:56:31Z</time>
      </trkpt>
      <trkpt lat="44.32149" lon="3.51665">
        <ele>877</ele>
        <time>2020-01-04T19:56:37Z</time>
      </trkpt>
      <trkpt lat="44.32142" lon="3.51661">
        <ele>877</ele>
        <time>2020-01-04T19:56:38Z</time>
      </trkpt>
      <trkpt lat="44.32134" lon="3.51655">
        <ele>878</ele>
        <time>2020-01-04T19:56:40Z</time>
      </trkpt>
      <trkpt lat="44.32117" lon="3.51631">
        <ele>880</ele>
        <time>2020-01-04T19:56:46Z</time>
      </trkpt>
      <trkpt lat="44.3211" lon="3.51629">
        <ele>880</ele>
        <time>2020-01-04T19:56:48Z</time>
      </trkpt>
      <trkpt lat="44.32106" lon="3.51618">
        <ele>880</ele>
        <time>2020-01-04T19:56:50Z</time>
      </trkpt>
      <trkpt lat="44.32112" lon="3.51608">
        <ele>880</ele>
        <time>2020-01-04T19:56:52Z</time>
      </trkpt>
      <trkpt lat="44.32196" lon="3.51567">
        <ele>875</ele>
        <time>2020-01-04T19:57:13Z</time>
      </trkpt>
      <trkpt lat="44.3222" lon="3.51528">
        <ele>873</ele>
        <time>2020-01-04T19:57:21Z</time>
      </trkpt>
      <trkpt lat="44.32265" lon="3.51337">
        <ele>881</ele>
        <time>2020-01-04T19:57:55Z</time>
      </trkpt>
      <trkpt lat="44.32265" lon="3.51314">
        <ele>882</ele>
        <time>2020-01-04T19:57:59Z</time>
      </trkpt>
      <trkpt lat="44.32252" lon="3.51211">
        <ele>885</ele>
        <time>2020-01-04T19:58:16Z</time>
      </trkpt>
      <trkpt lat="44.32241" lon="3.51183">
        <ele>886</ele>
        <time>2020-01-04T19:58:22Z</time>
      </trkpt>
      <trkpt lat="44.32235" lon="3.51131">
        <ele>882</ele>
        <time>2020-01-04T19:58:30Z</time>
      </trkpt>
      <trkpt lat="44.32226" lon="3.51086">
        <ele>879</ele>
        <time>2020-01-04T19:58:38Z</time>
      </trkpt>
      <trkpt lat="44.32207" lon="3.5105">
        <ele>880</ele>
        <time>2020-01-04T19:58:46Z</time>
      </trkpt>
      <trkpt lat="44.322" lon="3.50998">
        <ele>876</ele>
        <time>2020-01-04T19:58:55Z</time>
      </trkpt>
      <trkpt lat="44.32202" lon="3.50929">
        <ele>870</ele>
        <time>2020-01-04T19:59:06Z</time>
      </trkpt>
      <trkpt lat="44.32187" lon="3.50874">
        <ele>872</ele>
        <time>2020-01-04T19:59:16Z</time>
      </trkpt>
      <trkpt lat="44.32192" lon="3.50861">
        <ele>873</ele>
        <time>2020-01-04T19:59:18Z</time>
      </trkpt>
      <trkpt lat="44.32189" lon="3.5085">
        <ele>873</ele>
        <time>2020-01-04T19:59:20Z</time>
      </trkpt>
      <trkpt lat="44.32196" lon="3.50827">
        <ele>875</ele>
        <time>2020-01-04T19:59:25Z</time>
      </trkpt>
      <trkpt lat="44.32202" lon="3.50799">
        <ele>877</ele>
        <time>2020-01-04T19:59:29Z</time>
      </trkpt>
      <trkpt lat="44.32202" lon="3.50788">
        <ele>878</ele>
        <time>2020-01-04T19:59:31Z</time>
      </trkpt>
      <trkpt lat="44.32209" lon="3.50762">
        <ele>881</ele>
        <time>2020-01-04T19:59:36Z</time>
      </trkpt>
      <trkpt lat="44.32217" lon="3.50578">
        <ele>903</ele>
        <time>2020-01-04T20:00:07Z</time>
      </trkpt>
      <trkpt lat="44.32224" lon="3.50535">
        <ele>910</ele>
        <time>2020-01-04T20:00:14Z</time>
      </trkpt>
      <trkpt lat="44.32228" lon="3.50453">
        <ele>922</ele>
        <time>2020-01-04T20:00:28Z</time>
      </trkpt>
      <trkpt lat="44.32224" lon="3.50387">
        <ele>930</ele>
        <time>2020-01-04T20:00:39Z</time>
      </trkpt>
      <trkpt lat="44.32217" lon="3.50367">
        <ele>933</ele>
        <time>2020-01-04T20:00:43Z</time>
      </trkpt>
      <trkpt lat="44.32213" lon="3.50346">
        <ele>936</ele>
        <time>2020-01-04T20:00:46Z</time>
      </trkpt>
      <trkpt lat="44.32204" lon="3.50333">
        <ele>939</ele>
        <time>2020-01-04T20:00:49Z</time>
      </trkpt>
      <trkpt lat="44.32196" lon="3.50329">
        <ele>941</ele>
        <time>2020-01-04T20:00:51Z</time>
      </trkpt>
      <trkpt lat="44.32187" lon="3.50329">
        <ele>942</ele>
        <time>2020-01-04T20:00:53Z</time>
      </trkpt>
      <trkpt lat="44.32164" lon="3.50337">
        <ele>945</ele>
        <time>2020-01-04T20:00:59Z</time>
      </trkpt>
      <trkpt lat="44.32159" lon="3.50335">
        <ele>946</ele>
        <time>2020-01-04T20:01:00Z</time>
      </trkpt>
      <trkpt lat="44.32157" lon="3.50329">
        <ele>947</ele>
        <time>2020-01-04T20:01:01Z</time>
      </trkpt>
      <trkpt lat="44.32159" lon="3.50301">
        <ele>949</ele>
        <time>2020-01-04T20:01:06Z</time>
      </trkpt>
      <trkpt lat="44.32168" lon="3.50262">
        <ele>952</ele>
        <time>2020-01-04T20:01:13Z</time>
      </trkpt>
      <trkpt lat="44.32179" lon="3.50234">
        <ele>954</ele>
        <time>2020-01-04T20:01:18Z</time>
      </trkpt>
      <trkpt lat="44.32202" lon="3.50127">
        <ele>964</ele>
        <time>2020-01-04T20:01:37Z</time>
      </trkpt>
      <trkpt lat="44.32207" lon="3.49955">
        <ele>962</ele>
        <time>2020-01-04T20:02:06Z</time>
      </trkpt>
      <trkpt lat="44.32198" lon="3.49904">
        <ele>961</ele>
        <time>2020-01-04T20:02:14Z</time>
      </trkpt>
      <trkpt lat="44.32194" lon="3.49863">
        <ele>959</ele>
        <time>2020-01-04T20:02:21Z</time>
      </trkpt>
      <trkpt lat="44.32192" lon="3.49801">
        <ele>958</ele>
        <time>2020-01-04T20:02:32Z</time>
      </trkpt>
      <trkpt lat="44.32195" lon="3.49798">
        <ele>958</ele>
        <time>2020-01-04T20:02:32Z</time>
      </trkpt>
      <trkpt lat="44.32192" lon="3.49798">
        <ele>958</ele>
        <time>2020-01-04T20:02:33Z</time>
      </trkpt>
      <trkpt lat="44.32192" lon="3.49779">
        <ele>957</ele>
        <time>2020-01-04T20:02:36Z</time>
      </trkpt>
      <trkpt lat="44.32204" lon="3.4967">
        <ele>954</ele>
        <time>2020-01-04T20:02:55Z</time>
      </trkpt>
      <trkpt lat="44.32222" lon="3.49621">
        <ele>951</ele>
        <time>2020-01-04T20:03:04Z</time>
      </trkpt>
      <trkpt lat="44.32226" lon="3.49595">
        <ele>949</ele>
        <time>2020-01-04T20:03:08Z</time>
      </trkpt>
      <trkpt lat="44.3223" lon="3.49584">
        <ele>949</ele>
        <time>2020-01-04T20:03:10Z</time>
      </trkpt>
      <trkpt lat="44.32254" lon="3.49548">
        <ele>947</ele>
        <time>2020-01-04T20:03:19Z</time>
      </trkpt>
      <trkpt lat="44.32265" lon="3.49524">
        <ele>946</ele>
        <time>2020-01-04T20:03:23Z</time>
      </trkpt>
      <trkpt lat="44.32267" lon="3.49509">
        <ele>945</ele>
        <time>2020-01-04T20:03:26Z</time>
      </trkpt>
      <trkpt lat="44.32265" lon="3.49477">
        <ele>943</ele>
        <time>2020-01-04T20:03:31Z</time>
      </trkpt>
      <trkpt lat="44.32271" lon="3.49417">
        <ele>941</ele>
        <time>2020-01-04T20:03:41Z</time>
      </trkpt>
      <trkpt lat="44.32301" lon="3.49312">
        <ele>934</ele>
        <time>2020-01-04T20:04:00Z</time>
      </trkpt>
      <trkpt lat="44.32312" lon="3.49234">
        <ele>931</ele>
        <time>2020-01-04T20:04:14Z</time>
      </trkpt>
      <trkpt lat="44.32316" lon="3.49221">
        <ele>931</ele>
        <time>2020-01-04T20:04:16Z</time>
      </trkpt>
      <trkpt lat="44.32357" lon="3.49155">
        <ele>928</ele>
        <time>2020-01-04T20:04:31Z</time>
      </trkpt>
      <trkpt lat="44.32383" lon="3.49125">
        <ele>926</ele>
        <time>2020-01-04T20:04:38Z</time>
      </trkpt>
      <trkpt lat="44.32406" lon="3.49106">
        <ele>925</ele>
        <time>2020-01-04T20:04:45Z</time>
      </trkpt>
      <trkpt lat="44.32423" lon="3.49086">
        <ele>925</ele>
        <time>2020-01-04T20:04:50Z</time>
      </trkpt>
      <trkpt lat="44.32456" lon="3.49061">
        <ele>923</ele>
        <time>2020-01-04T20:04:59Z</time>
      </trkpt>
      <trkpt lat="44.3246" lon="3.49073">
        <ele>922</ele>
        <time>2020-01-04T20:05:01Z</time>
      </trkpt>
      <trkpt lat="44.32468" lon="3.49153">
        <ele>922</ele>
        <time>2020-01-04T20:05:14Z</time>
      </trkpt>
      <trkpt lat="44.32479" lon="3.49198">
        <ele>922</ele>
        <time>2020-01-04T20:05:22Z</time>
      </trkpt>
      <trkpt lat="44.32492" lon="3.4923">
        <ele>923</ele>
        <time>2020-01-04T20:05:28Z</time>
      </trkpt>
      <trkpt lat="44.32503" lon="3.49239">
        <ele>923</ele>
        <time>2020-01-04T20:05:31Z</time>
      </trkpt>
      <trkpt lat="44.32522" lon="3.49226">
        <ele>922</ele>
        <time>2020-01-04T20:05:36Z</time>
      </trkpt>
      <trkpt lat="44.32554" lon="3.49191">
        <ele>919</ele>
        <time>2020-01-04T20:05:46Z</time>
      </trkpt>
      <trkpt lat="44.32556" lon="3.49179">
        <ele>919</ele>
        <time>2020-01-04T20:05:48Z</time>
      </trkpt>
      <trkpt lat="44.32569" lon="3.49174">
        <ele>918</ele>
        <time>2020-01-04T20:05:51Z</time>
      </trkpt>
      <trkpt lat="44.32576" lon="3.49161">
        <ele>917</ele>
        <time>2020-01-04T20:05:54Z</time>
      </trkpt>
      <trkpt lat="44.32593" lon="3.49151">
        <ele>916</ele>
        <time>2020-01-04T20:05:58Z</time>
      </trkpt>
      <trkpt lat="44.32606" lon="3.49149">
        <ele>915</ele>
        <time>2020-01-04T20:06:01Z</time>
      </trkpt>
      <trkpt lat="44.32608" lon="3.49144">
        <ele>915</ele>
        <time>2020-01-04T20:06:02Z</time>
      </trkpt>
      <trkpt lat="44.32631" lon="3.49153">
        <ele>912</ele>
        <time>2020-01-04T20:06:08Z</time>
      </trkpt>
      <trkpt lat="44.32655" lon="3.49168">
        <ele>908</ele>
        <time>2020-01-04T20:06:14Z</time>
      </trkpt>
      <trkpt lat="44.32657" lon="3.49174">
        <ele>908</ele>
        <time>2020-01-04T20:06:15Z</time>
      </trkpt>
      <trkpt lat="44.32657" lon="3.49196">
        <ele>909</ele>
        <time>2020-01-04T20:06:19Z</time>
      </trkpt>
      <trkpt lat="44.32666" lon="3.49196">
        <ele>908</ele>
        <time>2020-01-04T20:06:21Z</time>
      </trkpt>
      <trkpt lat="44.32713" lon="3.49221">
        <ele>899</ele>
        <time>2020-01-04T20:06:32Z</time>
      </trkpt>
      <trkpt lat="44.32741" lon="3.4923">
        <ele>893</ele>
        <time>2020-01-04T20:06:39Z</time>
      </trkpt>
      <trkpt lat="44.32762" lon="3.4923">
        <ele>888</ele>
        <time>2020-01-04T20:06:44Z</time>
      </trkpt>
      <trkpt lat="44.32827" lon="3.49213">
        <ele>873</ele>
        <time>2020-01-04T20:07:00Z</time>
      </trkpt>
      <trkpt lat="44.32848" lon="3.49213">
        <ele>865</ele>
        <time>2020-01-04T20:07:04Z</time>
      </trkpt>
      <trkpt lat="44.32874" lon="3.49221">
        <ele>855</ele>
        <time>2020-01-04T20:07:11Z</time>
      </trkpt>
      <trkpt lat="44.3288" lon="3.49254">
        <ele>853</ele>
        <time>2020-01-04T20:07:16Z</time>
      </trkpt>
      <trkpt lat="44.32888" lon="3.4928">
        <ele>843</ele>
        <time>2020-01-04T20:07:21Z</time>
      </trkpt>
      <trkpt lat="44.32893" lon="3.4932">
        <ele>830</ele>
        <time>2020-01-04T20:07:28Z</time>
      </trkpt>
      <trkpt lat="44.32883" lon="3.49361">
        <ele>827</ele>
        <time>2020-01-04T20:07:35Z</time>
      </trkpt>
      <trkpt lat="44.32874" lon="3.4937">
        <ele>831</ele>
        <time>2020-01-04T20:07:38Z</time>
      </trkpt>
      <trkpt lat="44.32861" lon="3.49395">
        <ele>834</ele>
        <time>2020-01-04T20:07:43Z</time>
      </trkpt>
      <trkpt lat="44.32837" lon="3.49423">
        <ele>846</ele>
        <time>2020-01-04T20:07:50Z</time>
      </trkpt>
      <trkpt lat="44.32837" lon="3.49442">
        <ele>840</ele>
        <time>2020-01-04T20:07:53Z</time>
      </trkpt>
      <trkpt lat="44.32842" lon="3.49485">
        <ele>825</ele>
        <time>2020-01-04T20:08:01Z</time>
      </trkpt>
      <trkpt lat="44.32822" lon="3.49533">
        <ele>829</ele>
        <time>2020-01-04T20:08:10Z</time>
      </trkpt>
      <trkpt lat="44.32825" lon="3.49554">
        <ele>822</ele>
        <time>2020-01-04T20:08:13Z</time>
      </trkpt>
      <trkpt lat="44.32822" lon="3.49571">
        <ele>821</ele>
        <time>2020-01-04T20:08:16Z</time>
      </trkpt>
      <trkpt lat="44.32827" lon="3.49582">
        <ele>815</ele>
        <time>2020-01-04T20:08:19Z</time>
      </trkpt>
      <trkpt lat="44.32827" lon="3.49606">
        <ele>807</ele>
        <time>2020-01-04T20:08:23Z</time>
      </trkpt>
      <trkpt lat="44.32825" lon="3.49616">
        <ele>805</ele>
        <time>2020-01-04T20:08:24Z</time>
      </trkpt>
      <trkpt lat="44.32814" lon="3.49636">
        <ele>804</ele>
        <time>2020-01-04T20:08:29Z</time>
      </trkpt>
      <trkpt lat="44.32816" lon="3.4964">
        <ele>802</ele>
        <time>2020-01-04T20:08:29Z</time>
      </trkpt>
      <trkpt lat="44.3282" lon="3.49638">
        <ele>800</ele>
        <time>2020-01-04T20:08:30Z</time>
      </trkpt>
      <trkpt lat="44.32844" lon="3.49614">
        <ele>793</ele>
        <time>2020-01-04T20:08:37Z</time>
      </trkpt>
      <trkpt lat="44.32848" lon="3.49593">
        <ele>797</ele>
        <time>2020-01-04T20:08:41Z</time>
      </trkpt>
      <trkpt lat="44.32853" lon="3.49595">
        <ele>792</ele>
        <time>2020-01-04T20:08:42Z</time>
      </trkpt>
      <trkpt lat="44.32859" lon="3.49616">
        <ele>782</ele>
        <time>2020-01-04T20:08:46Z</time>
      </trkpt>
      <trkpt lat="44.32859" lon="3.49625">
        <ele>780</ele>
        <time>2020-01-04T20:08:47Z</time>
      </trkpt>
      <trkpt lat="44.32853" lon="3.49642">
        <ele>779</ele>
        <time>2020-01-04T20:08:50Z</time>
      </trkpt>
      <trkpt lat="44.32848" lon="3.49646">
        <ele>781</ele>
        <time>2020-01-04T20:08:52Z</time>
      </trkpt>
      <trkpt lat="44.32844" lon="3.49657">
        <ele>780</ele>
        <time>2020-01-04T20:08:54Z</time>
      </trkpt>
      <trkpt lat="44.32857" lon="3.49646">
        <ele>775</ele>
        <time>2020-01-04T20:08:57Z</time>
      </trkpt>
      <trkpt lat="44.3285" lon="3.49676">
        <ele>770</ele>
        <time>2020-01-04T20:09:03Z</time>
      </trkpt>
      <trkpt lat="44.32842" lon="3.49685">
        <ele>771</ele>
        <time>2020-01-04T20:09:05Z</time>
      </trkpt>
      <trkpt lat="44.3284" lon="3.49691">
        <ele>770</ele>
        <time>2020-01-04T20:09:06Z</time>
      </trkpt>
      <trkpt lat="44.3282" lon="3.49711">
        <ele>772</ele>
        <time>2020-01-04T20:09:12Z</time>
      </trkpt>
      <trkpt lat="44.32803" lon="3.49745">
        <ele>767</ele>
        <time>2020-01-04T20:09:19Z</time>
      </trkpt>
      <trkpt lat="44.32792" lon="3.49756">
        <ele>770</ele>
        <time>2020-01-04T20:09:22Z</time>
      </trkpt>
      <trkpt lat="44.32784" lon="3.4976">
        <ele>774</ele>
        <time>2020-01-04T20:09:24Z</time>
      </trkpt>
      <trkpt lat="44.32773" lon="3.49775">
        <ele>779</ele>
        <time>2020-01-04T20:09:28Z</time>
      </trkpt>
      <trkpt lat="44.32767" lon="3.49803">
        <ele>781</ele>
        <time>2020-01-04T20:09:33Z</time>
      </trkpt>
      <trkpt lat="44.32769" lon="3.4982">
        <ele>779</ele>
        <time>2020-01-04T20:09:35Z</time>
      </trkpt>
      <trkpt lat="44.32784" lon="3.49829">
        <ele>767</ele>
        <time>2020-01-04T20:09:39Z</time>
      </trkpt>
      <trkpt lat="44.32805" lon="3.49857">
        <ele>758</ele>
        <time>2020-01-04T20:09:46Z</time>
      </trkpt>
      <trkpt lat="44.32812" lon="3.49874">
        <ele>759</ele>
        <time>2020-01-04T20:09:49Z</time>
      </trkpt>
      <trkpt lat="44.3284" lon="3.4988">
        <ele>742</ele>
        <time>2020-01-04T20:09:56Z</time>
      </trkpt>
      <trkpt lat="44.32848" lon="3.49889">
        <ele>741</ele>
        <time>2020-01-04T20:09:58Z</time>
      </trkpt>
      <trkpt lat="44.32855" lon="3.49891">
        <ele>737</ele>
        <time>2020-01-04T20:10:00Z</time>
      </trkpt>
      <trkpt lat="44.32885" lon="3.49912">
        <ele>727</ele>
        <time>2020-01-04T20:10:08Z</time>
      </trkpt>
      <trkpt lat="44.3293" lon="3.49938">
        <ele>707</ele>
        <time>2020-01-04T20:10:19Z</time>
      </trkpt>
      <trkpt lat="44.32951" lon="3.49955">
        <ele>699</ele>
        <time>2020-01-04T20:10:25Z</time>
      </trkpt>
      <trkpt lat="44.32953" lon="3.4996">
        <ele>699</ele>
        <time>2020-01-04T20:10:26Z</time>
      </trkpt>
      <trkpt lat="44.3296" lon="3.49964">
        <ele>696</ele>
        <time>2020-01-04T20:10:28Z</time>
      </trkpt>
      <trkpt lat="44.32975" lon="3.49988">
        <ele>693</ele>
        <time>2020-01-04T20:10:33Z</time>
      </trkpt>
      <trkpt lat="44.32994" lon="3.50005">
        <ele>686</ele>
        <time>2020-01-04T20:10:38Z</time>
      </trkpt>
      <trkpt lat="44.32998" lon="3.50015">
        <ele>684</ele>
        <time>2020-01-04T20:10:40Z</time>
      </trkpt>
      <trkpt lat="44.33003" lon="3.50015">
        <ele>681</ele>
        <time>2020-01-04T20:10:41Z</time>
      </trkpt>
      <trkpt lat="44.33005" lon="3.50007">
        <ele>681</ele>
        <time>2020-01-04T20:10:43Z</time>
      </trkpt>
      <trkpt lat="44.33009" lon="3.50003">
        <ele>679</ele>
        <time>2020-01-04T20:10:44Z</time>
      </trkpt>
      <trkpt lat="44.33013" lon="3.50005">
        <ele>677</ele>
        <time>2020-01-04T20:10:45Z</time>
      </trkpt>
      <trkpt lat="44.33026" lon="3.50026">
        <ele>672</ele>
        <time>2020-01-04T20:10:49Z</time>
      </trkpt>
      <trkpt lat="44.33026" lon="3.50033">
        <ele>671</ele>
        <time>2020-01-04T20:10:51Z</time>
      </trkpt>
      <trkpt lat="44.33005" lon="3.50054">
        <ele>680</ele>
        <time>2020-01-04T20:10:57Z</time>
      </trkpt>
      <trkpt lat="44.32996" lon="3.50058">
        <ele>684</ele>
        <time>2020-01-04T20:10:59Z</time>
      </trkpt>
      <trkpt lat="44.32994" lon="3.50067">
        <ele>685</ele>
        <time>2020-01-04T20:11:00Z</time>
      </trkpt>
      <trkpt lat="44.32996" lon="3.50088">
        <ele>684</ele>
        <time>2020-01-04T20:11:04Z</time>
      </trkpt>
      <trkpt lat="44.33013" lon="3.5011">
        <ele>682</ele>
        <time>2020-01-04T20:11:09Z</time>
      </trkpt>
      <trkpt lat="44.33059" lon="3.50144">
        <ele>671</ele>
        <time>2020-01-04T20:11:21Z</time>
      </trkpt>
      <trkpt lat="44.33089" lon="3.50153">
        <ele>661</ele>
        <time>2020-01-04T20:11:29Z</time>
      </trkpt>
      <trkpt lat="44.33097" lon="3.50157">
        <ele>658</ele>
        <time>2020-01-04T20:11:31Z</time>
      </trkpt>
      <trkpt lat="44.33112" lon="3.5017">
        <ele>656</ele>
        <time>2020-01-04T20:11:35Z</time>
      </trkpt>
      <trkpt lat="44.33119" lon="3.5017">
        <ele>653</ele>
        <time>2020-01-04T20:11:36Z</time>
      </trkpt>
      <trkpt lat="44.33125" lon="3.50174">
        <ele>651</ele>
        <time>2020-01-04T20:11:38Z</time>
      </trkpt>
      <trkpt lat="44.33142" lon="3.50178">
        <ele>646</ele>
        <time>2020-01-04T20:11:42Z</time>
      </trkpt>
      <trkpt lat="44.33132" lon="3.50176">
        <ele>649</ele>
        <time>2020-01-04T20:11:44Z</time>
      </trkpt>
      <trkpt lat="44.33133" lon="3.50166">
        <ele>646</ele>
        <time>2020-01-04T20:11:46Z</time>
      </trkpt>
      <trkpt lat="44.33132" lon="3.50176">
        <ele>649</ele>
        <time>2020-01-04T20:11:48Z</time>
      </trkpt>
      <trkpt lat="44.33142" lon="3.50178">
        <ele>646</ele>
        <time>2020-01-04T20:11:50Z</time>
      </trkpt>
      <trkpt lat="44.33168" lon="3.50191">
        <ele>639</ele>
        <time>2020-01-04T20:11:57Z</time>
      </trkpt>
      <trkpt lat="44.33187" lon="3.50204">
        <ele>636</ele>
        <time>2020-01-04T20:12:01Z</time>
      </trkpt>
      <trkpt lat="44.33204" lon="3.50211">
        <ele>633</ele>
        <time>2020-01-04T20:12:06Z</time>
      </trkpt>
      <trkpt lat="44.33211" lon="3.50217">
        <ele>632</ele>
        <time>2020-01-04T20:12:08Z</time>
      </trkpt>
      <trkpt lat="44.33239" lon="3.50224">
        <ele>624</ele>
        <time>2020-01-04T20:12:14Z</time>
      </trkpt>
      <trkpt lat="44.33258" lon="3.50232">
        <ele>619</ele>
        <time>2020-01-04T20:12:19Z</time>
      </trkpt>
      <trkpt lat="44.33262" lon="3.50228">
        <ele>617</ele>
        <time>2020-01-04T20:12:20Z</time>
      </trkpt>
      <trkpt lat="44.3326" lon="3.50221">
        <ele>617</ele>
        <time>2020-01-04T20:12:21Z</time>
      </trkpt>
      <trkpt lat="44.33264" lon="3.50219">
        <ele>615</ele>
        <time>2020-01-04T20:12:22Z</time>
      </trkpt>
      <trkpt lat="44.33284" lon="3.50232">
        <ele>612</ele>
        <time>2020-01-04T20:12:27Z</time>
      </trkpt>
      <trkpt lat="44.33295" lon="3.50243">
        <ele>611</ele>
        <time>2020-01-04T20:12:30Z</time>
      </trkpt>
      <trkpt lat="44.33288" lon="3.50277">
        <ele>611</ele>
        <time>2020-01-04T20:12:36Z</time>
      </trkpt>
      <trkpt lat="44.33292" lon="3.50312">
        <ele>605</ele>
        <time>2020-01-04T20:12:42Z</time>
      </trkpt>
      <trkpt lat="44.33288" lon="3.50322">
        <ele>605</ele>
        <time>2020-01-04T20:12:44Z</time>
      </trkpt>
      <trkpt lat="44.33284" lon="3.50372">
        <ele>592</ele>
        <time>2020-01-04T20:12:53Z</time>
      </trkpt>
      <trkpt lat="44.33295" lon="3.50359">
        <ele>593</ele>
        <time>2020-01-04T20:12:56Z</time>
      </trkpt>
      <trkpt lat="44.33301" lon="3.50357">
        <ele>592</ele>
        <time>2020-01-04T20:12:57Z</time>
      </trkpt>
      <trkpt lat="44.33303" lon="3.50361">
        <ele>590</ele>
        <time>2020-01-04T20:12:58Z</time>
      </trkpt>
      <trkpt lat="44.33299" lon="3.50374">
        <ele>587</ele>
        <time>2020-01-04T20:13:01Z</time>
      </trkpt>
      <trkpt lat="44.3331" lon="3.50376">
        <ele>583</ele>
        <time>2020-01-04T20:13:03Z</time>
      </trkpt>
      <trkpt lat="44.33301" lon="3.50384">
        <ele>583</ele>
        <time>2020-01-04T20:13:06Z</time>
      </trkpt>
      <trkpt lat="44.33284" lon="3.50408">
        <ele>580</ele>
        <time>2020-01-04T20:13:11Z</time>
      </trkpt>
      <trkpt lat="44.33271" lon="3.50436">
        <ele>578</ele>
        <time>2020-01-04T20:13:17Z</time>
      </trkpt>
      <trkpt lat="44.33243" lon="3.50457">
        <ele>582</ele>
        <time>2020-01-04T20:13:24Z</time>
      </trkpt>
      <trkpt lat="44.33228" lon="3.50481">
        <ele>585</ele>
        <time>2020-01-04T20:13:30Z</time>
      </trkpt>
      <trkpt lat="44.33241" lon="3.50485">
        <ele>577</ele>
        <time>2020-01-04T20:13:33Z</time>
      </trkpt>
      <trkpt lat="44.33245" lon="3.5049">
        <ele>574</ele>
        <time>2020-01-04T20:13:34Z</time>
      </trkpt>
      <trkpt lat="44.33258" lon="3.5049">
        <ele>572</ele>
        <time>2020-01-04T20:13:37Z</time>
      </trkpt>
      <trkpt lat="44.33275" lon="3.50494">
        <ele>571</ele>
        <time>2020-01-04T20:13:41Z</time>
      </trkpt>
      <trkpt lat="44.3329" lon="3.50492">
        <ele>571</ele>
        <time>2020-01-04T20:13:45Z</time>
      </trkpt>
      <trkpt lat="44.33307" lon="3.50481">
        <ele>571</ele>
        <time>2020-01-04T20:13:49Z</time>
      </trkpt>
      <trkpt lat="44.33316" lon="3.50472">
        <ele>571</ele>
        <time>2020-01-04T20:13:52Z</time>
      </trkpt>
      <trkpt lat="44.33333" lon="3.50477">
        <ele>570</ele>
        <time>2020-01-04T20:13:56Z</time>
      </trkpt>
      <trkpt lat="44.33342" lon="3.50483">
        <ele>568</ele>
        <time>2020-01-04T20:13:58Z</time>
      </trkpt>
      <trkpt lat="44.3337" lon="3.5053">
        <ele>575</ele>
        <time>2020-01-04T20:14:08Z</time>
      </trkpt>
      <trkpt lat="44.33387" lon="3.50545">
        <ele>576</ele>
        <time>2020-01-04T20:14:13Z</time>
      </trkpt>
      <trkpt lat="44.33393" lon="3.50558">
        <ele>579</ele>
        <time>2020-01-04T20:14:15Z</time>
      </trkpt>
      <trkpt lat="44.33413" lon="3.50588">
        <ele>584</ele>
        <time>2020-01-04T20:14:22Z</time>
      </trkpt>
      <trkpt lat="44.33417" lon="3.5059">
        <ele>584</ele>
        <time>2020-01-04T20:14:23Z</time>
      </trkpt>
      <trkpt lat="44.33428" lon="3.50573">
        <ele>580</ele>
        <time>2020-01-04T20:14:27Z</time>
      </trkpt>
      <trkpt lat="44.33438" lon="3.50567">
        <ele>581</ele>
        <time>2020-01-04T20:14:30Z</time>
      </trkpt>
      <trkpt lat="44.33447" lon="3.50556">
        <ele>579</ele>
        <time>2020-01-04T20:14:32Z</time>
      </trkpt>
      <trkpt lat="44.33455" lon="3.5055">
        <ele>578</ele>
        <time>2020-01-04T20:14:35Z</time>
      </trkpt>
      <trkpt lat="44.33466" lon="3.50548">
        <ele>580</ele>
        <time>2020-01-04T20:14:37Z</time>
      </trkpt>
      <trkpt lat="44.33486" lon="3.50534">
        <ele>578</ele>
        <time>2020-01-04T20:14:42Z</time>
      </trkpt>
      <trkpt lat="44.33484" lon="3.50529">
        <ele>575</ele>
        <time>2020-01-04T20:14:43Z</time>
      </trkpt>
      <trkpt lat="44.33486" lon="3.50534">
        <ele>578</ele>
        <time>2020-01-04T20:14:44Z</time>
      </trkpt>
      <trkpt lat="44.33522" lon="3.50502">
        <ele>572</ele>
        <time>2020-01-04T20:14:54Z</time>
      </trkpt>
      <trkpt lat="44.33531" lon="3.50481">
        <ele>568</ele>
        <time>2020-01-04T20:14:58Z</time>
      </trkpt>
      <trkpt lat="44.33565" lon="3.5047">
        <ele>577</ele>
        <time>2020-01-04T20:15:07Z</time>
      </trkpt>
      <trkpt lat="44.33601" lon="3.50449">
        <ele>577</ele>
        <time>2020-01-04T20:15:16Z</time>
      </trkpt>
      <trkpt lat="44.33616" lon="3.50427">
        <ele>573</ele>
        <time>2020-01-04T20:15:21Z</time>
      </trkpt>
      <trkpt lat="44.33634" lon="3.50419">
        <ele>574</ele>
        <time>2020-01-04T20:15:25Z</time>
      </trkpt>
      <trkpt lat="44.3364" lon="3.5041">
        <ele>572</ele>
        <time>2020-01-04T20:15:27Z</time>
      </trkpt>
      <trkpt lat="44.33664" lon="3.50393">
        <ele>570</ele>
        <time>2020-01-04T20:15:33Z</time>
      </trkpt>
      <trkpt lat="44.33668" lon="3.5038">
        <ele>566</ele>
        <time>2020-01-04T20:15:36Z</time>
      </trkpt>
      <trkpt lat="44.33694" lon="3.50348">
        <ele>557</ele>
        <time>2020-01-04T20:15:44Z</time>
      </trkpt>
      <trkpt lat="44.33702" lon="3.50342">
        <ele>556</ele>
        <time>2020-01-04T20:15:46Z</time>
      </trkpt>
      <trkpt lat="44.33707" lon="3.50331">
        <ele>554</ele>
        <time>2020-01-04T20:15:48Z</time>
      </trkpt>
      <trkpt lat="44.33709" lon="3.50316">
        <ele>550</ele>
        <time>2020-01-04T20:15:51Z</time>
      </trkpt>
      <trkpt lat="44.33728" lon="3.50294">
        <ele>546</ele>
        <time>2020-01-04T20:15:57Z</time>
      </trkpt>
      <trkpt lat="44.33741" lon="3.50266">
        <ele>541</ele>
        <time>2020-01-04T20:16:02Z</time>
      </trkpt>
      <trkpt lat="44.33749" lon="3.50183">
        <ele>527</ele>
        <time>2020-01-04T20:16:16Z</time>
      </trkpt>
      <trkpt lat="44.33739" lon="3.5014">
        <ele>520</ele>
        <time>2020-01-04T20:16:24Z</time>
      </trkpt>
      <trkpt lat="44.33739" lon="3.50103">
        <ele>515</ele>
        <time>2020-01-04T20:16:30Z</time>
      </trkpt>
      <trkpt lat="44.33728" lon="3.50071">
        <ele>511</ele>
        <time>2020-01-04T20:16:36Z</time>
      </trkpt>
      <trkpt lat="44.3373" lon="3.5005">
        <ele>509</ele>
        <time>2020-01-04T20:16:39Z</time>
      </trkpt>
      <trkpt lat="44.33726" lon="3.50043">
        <ele>509</ele>
        <time>2020-01-04T20:16:41Z</time>
      </trkpt>
      <trkpt lat="44.33724" lon="3.5003">
        <ele>507</ele>
        <time>2020-01-04T20:16:43Z</time>
      </trkpt>
      <trkpt lat="44.33726" lon="3.5002">
        <ele>506</ele>
        <time>2020-01-04T20:16:45Z</time>
      </trkpt>
      <trkpt lat="44.3373" lon="3.50015">
        <ele>506</ele>
        <time>2020-01-04T20:16:46Z</time>
      </trkpt>
      <trkpt lat="44.33747" lon="3.50009">
        <ele>504</ele>
        <time>2020-01-04T20:16:50Z</time>
      </trkpt>
      <trkpt lat="44.33764" lon="3.50013">
        <ele>504</ele>
        <time>2020-01-04T20:16:54Z</time>
      </trkpt>
      <trkpt lat="44.33779" lon="3.50022">
        <ele>504</ele>
        <time>2020-01-04T20:16:58Z</time>
      </trkpt>
      <trkpt lat="44.33807" lon="3.5002">
        <ele>502</ele>
        <time>2020-01-04T20:17:04Z</time>
      </trkpt>
      <trkpt lat="44.33816" lon="3.50013">
        <ele>500</ele>
        <time>2020-01-04T20:17:07Z</time>
      </trkpt>
      <trkpt lat="44.33831" lon="3.49994">
        <ele>498</ele>
        <time>2020-01-04T20:17:12Z</time>
      </trkpt>
      <trkpt lat="44.33852" lon="3.49945">
        <ele>494</ele>
        <time>2020-01-04T20:17:21Z</time>
      </trkpt>
      <trkpt lat="44.3387" lon="3.49919">
        <ele>493</ele>
        <time>2020-01-04T20:17:27Z</time>
      </trkpt>
      <trkpt lat="44.33874" lon="3.499">
        <ele>493</ele>
        <time>2020-01-04T20:17:30Z</time>
      </trkpt>
      <trkpt lat="44.3387" lon="3.49885">
        <ele>493</ele>
        <time>2020-01-04T20:17:33Z</time>
      </trkpt>
      <trkpt lat="44.33807" lon="3.49844">
        <ele>490</ele>
        <time>2020-01-04T20:17:49Z</time>
      </trkpt>
      <trkpt lat="44.33786" lon="3.49818">
        <ele>490</ele>
        <time>2020-01-04T20:17:56Z</time>
      </trkpt>
      <trkpt lat="44.33779" lon="3.49829">
        <ele>489</ele>
        <time>2020-01-04T20:17:58Z</time>
      </trkpt>
      <trkpt lat="44.33784" lon="3.49816">
        <ele>490</ele>
        <time>2020-01-04T20:18:01Z</time>
      </trkpt>
      <trkpt lat="44.33773" lon="3.49807">
        <ele>490</ele>
        <time>2020-01-04T20:18:04Z</time>
      </trkpt>
      <trkpt lat="44.33687" lon="3.4976">
        <ele>488</ele>
        <time>2020-01-04T20:18:25Z</time>
      </trkpt>
      <trkpt lat="44.33664" lon="3.49743">
        <ele>489</ele>
        <time>2020-01-04T20:18:31Z</time>
      </trkpt>
      <trkpt lat="44.3364" lon="3.49736">
        <ele>491</ele>
        <time>2020-01-04T20:18:37Z</time>
      </trkpt>
      <trkpt lat="44.33601" lon="3.49743">
        <ele>492</ele>
        <time>2020-01-04T20:18:46Z</time>
      </trkpt>
      <trkpt lat="44.33558" lon="3.49741">
        <ele>493</ele>
        <time>2020-01-04T20:18:56Z</time>
      </trkpt>
      <trkpt lat="44.33443" lon="3.49717">
        <ele>495</ele>
        <time>2020-01-04T20:19:24Z</time>
      </trkpt>
      <trkpt lat="44.33413" lon="3.49713">
        <ele>495</ele>
        <time>2020-01-04T20:19:31Z</time>
      </trkpt>
      <trkpt lat="44.33389" lon="3.49717">
        <ele>496</ele>
        <time>2020-01-04T20:19:36Z</time>
      </trkpt>
      <trkpt lat="44.33376" lon="3.49734">
        <ele>498</ele>
        <time>2020-01-04T20:19:40Z</time>
      </trkpt>
      <trkpt lat="44.3335" lon="3.49739">
        <ele>500</ele>
        <time>2020-01-04T20:19:47Z</time>
      </trkpt>
      <trkpt lat="44.33333" lon="3.49739">
        <ele>502</ele>
        <time>2020-01-04T20:19:51Z</time>
      </trkpt>
    </trkseg>
  </trk>
</gpx>